<?xml version="1.0" encoding="UTF-8" standalone="no" ?>
<gpx xmlns="http://www.topografix.com/GPX/1/1" xmlns:xsi="http://www.w3.org/2001/XMLSchema-instance" xsi:schemaLocation="http://www.topografix.com/GPX/1/1 http://www.topografix.com/GPX/1/1/gpx.xsd" version="1.1" creator="VisuGPX - https://www.visugpx.com">
  <metadata>
    <name>Deuxième étape Paris Vézelay</name>
    <desc><![CDATA[Deuxième étape du chemin de PARIS à VEZELAY]]></desc>
  </metadata>
  <trk>
    <name><![CDATA[Vezrlay 3 2014-01-05 09:43:09]]></name>
    <desc><![CDATA[6h:32m:23s | 24.1 km]]></desc>
    <trkseg>
      <trkpt lat="48.70685" lon="2.45614">
        <ele>124.1</ele>
        <time>2014-01-05T08:43:11Z</time>
      </trkpt>
      <trkpt lat="48.70694" lon="2.45581">
        <ele>122.09</ele>
        <time>2014-01-05T08:51:43Z</time>
      </trkpt>
      <trkpt lat="48.70705" lon="2.4555">
        <ele>121.3</ele>
        <time>2014-01-05T08:52:06Z</time>
      </trkpt>
      <trkpt lat="48.70721" lon="2.45526">
        <ele>120.56</ele>
        <time>2014-01-05T08:52:27Z</time>
      </trkpt>
      <trkpt lat="48.7073" lon="2.45495">
        <ele>119.38</ele>
        <time>2014-01-05T08:52:46Z</time>
      </trkpt>
      <trkpt lat="48.70712" lon="2.45474">
        <ele>121</ele>
        <time>2014-01-05T08:53:08Z</time>
      </trkpt>
      <trkpt lat="48.70694" lon="2.45451">
        <ele>122.81</ele>
        <time>2014-01-05T08:53:29Z</time>
      </trkpt>
      <trkpt lat="48.70676" lon="2.45429">
        <ele>121.96</ele>
        <time>2014-01-05T08:53:52Z</time>
      </trkpt>
      <trkpt lat="48.70654" lon="2.45418">
        <ele>121.84</ele>
        <time>2014-01-05T08:54:14Z</time>
      </trkpt>
      <trkpt lat="48.70632" lon="2.45407">
        <ele>121.8</ele>
        <time>2014-01-05T08:54:28Z</time>
      </trkpt>
      <trkpt lat="48.7061" lon="2.45399">
        <ele>121.37</ele>
        <time>2014-01-05T08:54:50Z</time>
      </trkpt>
      <trkpt lat="48.70587" lon="2.45391">
        <ele>121.32</ele>
        <time>2014-01-05T08:55:08Z</time>
      </trkpt>
      <trkpt lat="48.70565" lon="2.45386">
        <ele>121.67</ele>
        <time>2014-01-05T08:55:27Z</time>
      </trkpt>
      <trkpt lat="48.70542" lon="2.4538">
        <ele>121.53</ele>
        <time>2014-01-05T08:55:46Z</time>
      </trkpt>
      <trkpt lat="48.7052" lon="2.45374">
        <ele>123.1</ele>
        <time>2014-01-05T08:56:09Z</time>
      </trkpt>
      <trkpt lat="48.705" lon="2.4539">
        <ele>123.17</ele>
        <time>2014-01-05T08:56:36Z</time>
      </trkpt>
      <trkpt lat="48.7048" lon="2.4541">
        <ele>122.31</ele>
        <time>2014-01-05T08:56:57Z</time>
      </trkpt>
      <trkpt lat="48.70462" lon="2.45431">
        <ele>122.04</ele>
        <time>2014-01-05T08:57:17Z</time>
      </trkpt>
      <trkpt lat="48.70442" lon="2.45448">
        <ele>120.95</ele>
        <time>2014-01-05T08:57:34Z</time>
      </trkpt>
      <trkpt lat="48.70423" lon="2.45466">
        <ele>122.59</ele>
        <time>2014-01-05T08:57:54Z</time>
      </trkpt>
      <trkpt lat="48.70405" lon="2.45486">
        <ele>121.73</ele>
        <time>2014-01-05T08:58:12Z</time>
      </trkpt>
      <trkpt lat="48.70387" lon="2.45507">
        <ele>123.32</ele>
        <time>2014-01-05T08:58:32Z</time>
      </trkpt>
      <trkpt lat="48.70367" lon="2.45523">
        <ele>124.4</ele>
        <time>2014-01-05T08:58:52Z</time>
      </trkpt>
      <trkpt lat="48.70349" lon="2.45544">
        <ele>123.8</ele>
        <time>2014-01-05T08:59:12Z</time>
      </trkpt>
      <trkpt lat="48.70327" lon="2.45556">
        <ele>123.97</ele>
        <time>2014-01-05T08:59:31Z</time>
      </trkpt>
      <trkpt lat="48.70312" lon="2.45583">
        <ele>122.73</ele>
        <time>2014-01-05T08:59:50Z</time>
      </trkpt>
      <trkpt lat="48.70292" lon="2.45599">
        <ele>122.75</ele>
        <time>2014-01-05T09:00:06Z</time>
      </trkpt>
      <trkpt lat="48.70272" lon="2.45616">
        <ele>122.44</ele>
        <time>2014-01-05T09:00:25Z</time>
      </trkpt>
      <trkpt lat="48.70254" lon="2.45637">
        <ele>123.42</ele>
        <time>2014-01-05T09:00:46Z</time>
      </trkpt>
      <trkpt lat="48.70234" lon="2.45655">
        <ele>123.49</ele>
        <time>2014-01-05T09:01:05Z</time>
      </trkpt>
      <trkpt lat="48.70215" lon="2.45675">
        <ele>124.18</ele>
        <time>2014-01-05T09:01:24Z</time>
      </trkpt>
      <trkpt lat="48.70196" lon="2.45695">
        <ele>125.28</ele>
        <time>2014-01-05T09:01:45Z</time>
      </trkpt>
      <trkpt lat="48.70175" lon="2.45706">
        <ele>126.42</ele>
        <time>2014-01-05T09:02:03Z</time>
      </trkpt>
      <trkpt lat="48.70156" lon="2.45728">
        <ele>126.89</ele>
        <time>2014-01-05T09:02:21Z</time>
      </trkpt>
      <trkpt lat="48.70137" lon="2.45748">
        <ele>126.68</ele>
        <time>2014-01-05T09:02:40Z</time>
      </trkpt>
      <trkpt lat="48.70117" lon="2.45767">
        <ele>125.39</ele>
        <time>2014-01-05T09:02:58Z</time>
      </trkpt>
      <trkpt lat="48.70099" lon="2.45788">
        <ele>125.11</ele>
        <time>2014-01-05T09:03:17Z</time>
      </trkpt>
      <trkpt lat="48.7008" lon="2.45808">
        <ele>125.34</ele>
        <time>2014-01-05T09:03:36Z</time>
      </trkpt>
      <trkpt lat="48.70061" lon="2.45828">
        <ele>124</ele>
        <time>2014-01-05T09:03:54Z</time>
      </trkpt>
      <trkpt lat="48.70043" lon="2.45847">
        <ele>125.57</ele>
        <time>2014-01-05T09:04:12Z</time>
      </trkpt>
      <trkpt lat="48.70023" lon="2.45864">
        <ele>125.2</ele>
        <time>2014-01-05T09:04:30Z</time>
      </trkpt>
      <trkpt lat="48.70005" lon="2.45888">
        <ele>124.88</ele>
        <time>2014-01-05T09:04:49Z</time>
      </trkpt>
      <trkpt lat="48.69986" lon="2.45906">
        <ele>126.38</ele>
        <time>2014-01-05T09:05:07Z</time>
      </trkpt>
      <trkpt lat="48.69965" lon="2.45922">
        <ele>125.04</ele>
        <time>2014-01-05T09:05:27Z</time>
      </trkpt>
      <trkpt lat="48.69946" lon="2.4594">
        <ele>126.22</ele>
        <time>2014-01-05T09:05:45Z</time>
      </trkpt>
      <trkpt lat="48.69926" lon="2.4596">
        <ele>126.79</ele>
        <time>2014-01-05T09:06:06Z</time>
      </trkpt>
      <trkpt lat="48.69906" lon="2.45975">
        <ele>126.24</ele>
        <time>2014-01-05T09:06:24Z</time>
      </trkpt>
      <trkpt lat="48.69888" lon="2.45998">
        <ele>127.08</ele>
        <time>2014-01-05T09:06:44Z</time>
      </trkpt>
      <trkpt lat="48.69868" lon="2.46014">
        <ele>126.56</ele>
        <time>2014-01-05T09:07:01Z</time>
      </trkpt>
      <trkpt lat="48.69849" lon="2.46034">
        <ele>126.5</ele>
        <time>2014-01-05T09:07:19Z</time>
      </trkpt>
      <trkpt lat="48.69829" lon="2.46053">
        <ele>127.57</ele>
        <time>2014-01-05T09:07:38Z</time>
      </trkpt>
      <trkpt lat="48.6981" lon="2.46073">
        <ele>128.26</ele>
        <time>2014-01-05T09:07:58Z</time>
      </trkpt>
      <trkpt lat="48.69791" lon="2.46094">
        <ele>127.13</ele>
        <time>2014-01-05T09:08:16Z</time>
      </trkpt>
      <trkpt lat="48.69774" lon="2.46117">
        <ele>128.91</ele>
        <time>2014-01-05T09:08:44Z</time>
      </trkpt>
      <trkpt lat="48.69755" lon="2.46137">
        <ele>129.09</ele>
        <time>2014-01-05T09:09:05Z</time>
      </trkpt>
      <trkpt lat="48.69735" lon="2.46155">
        <ele>129.59</ele>
        <time>2014-01-05T09:09:23Z</time>
      </trkpt>
      <trkpt lat="48.69716" lon="2.46175">
        <ele>130.67</ele>
        <time>2014-01-05T09:09:44Z</time>
      </trkpt>
      <trkpt lat="48.69697" lon="2.46194">
        <ele>129.63</ele>
        <time>2014-01-05T09:10:02Z</time>
      </trkpt>
      <trkpt lat="48.69676" lon="2.4621">
        <ele>129.39</ele>
        <time>2014-01-05T09:10:21Z</time>
      </trkpt>
      <trkpt lat="48.69656" lon="2.46227">
        <ele>131.72</ele>
        <time>2014-01-05T09:10:43Z</time>
      </trkpt>
      <trkpt lat="48.69639" lon="2.4625">
        <ele>131.9</ele>
        <time>2014-01-05T09:11:01Z</time>
      </trkpt>
      <trkpt lat="48.6962" lon="2.4627">
        <ele>132.13</ele>
        <time>2014-01-05T09:11:21Z</time>
      </trkpt>
      <trkpt lat="48.69599" lon="2.46283">
        <ele>134.36</ele>
        <time>2014-01-05T09:11:39Z</time>
      </trkpt>
      <trkpt lat="48.69579" lon="2.46302">
        <ele>136.4</ele>
        <time>2014-01-05T09:11:59Z</time>
      </trkpt>
      <trkpt lat="48.69558" lon="2.46318">
        <ele>132.6</ele>
        <time>2014-01-05T09:12:16Z</time>
      </trkpt>
      <trkpt lat="48.69543" lon="2.46344">
        <ele>132.63</ele>
        <time>2014-01-05T09:12:34Z</time>
      </trkpt>
      <trkpt lat="48.69525" lon="2.46365">
        <ele>133.22</ele>
        <time>2014-01-05T09:12:53Z</time>
      </trkpt>
      <trkpt lat="48.69507" lon="2.46384">
        <ele>133.43</ele>
        <time>2014-01-05T09:13:13Z</time>
      </trkpt>
      <trkpt lat="48.69488" lon="2.46406">
        <ele>131.52</ele>
        <time>2014-01-05T09:13:33Z</time>
      </trkpt>
      <trkpt lat="48.69466" lon="2.46414">
        <ele>130.89</ele>
        <time>2014-01-05T09:13:51Z</time>
      </trkpt>
      <trkpt lat="48.69443" lon="2.46409">
        <ele>129.64</ele>
        <time>2014-01-05T09:14:11Z</time>
      </trkpt>
      <trkpt lat="48.69431" lon="2.46438">
        <ele>130.82</ele>
        <time>2014-01-05T09:15:24Z</time>
      </trkpt>
      <trkpt lat="48.69411" lon="2.46456">
        <ele>131.47</ele>
        <time>2014-01-05T09:15:44Z</time>
      </trkpt>
      <trkpt lat="48.69391" lon="2.46475">
        <ele>132.4</ele>
        <time>2014-01-05T09:16:07Z</time>
      </trkpt>
      <trkpt lat="48.69373" lon="2.46499">
        <ele>132.53</ele>
        <time>2014-01-05T09:16:24Z</time>
      </trkpt>
      <trkpt lat="48.69353" lon="2.46517">
        <ele>131.48</ele>
        <time>2014-01-05T09:16:51Z</time>
      </trkpt>
      <trkpt lat="48.69334" lon="2.46536">
        <ele>130.28</ele>
        <time>2014-01-05T09:17:11Z</time>
      </trkpt>
      <trkpt lat="48.69315" lon="2.46557">
        <ele>130.08</ele>
        <time>2014-01-05T09:17:31Z</time>
      </trkpt>
      <trkpt lat="48.69296" lon="2.46577">
        <ele>129.9</ele>
        <time>2014-01-05T09:17:49Z</time>
      </trkpt>
      <trkpt lat="48.69277" lon="2.46598">
        <ele>129.99</ele>
        <time>2014-01-05T09:18:09Z</time>
      </trkpt>
      <trkpt lat="48.69256" lon="2.46614">
        <ele>128.97</ele>
        <time>2014-01-05T09:18:30Z</time>
      </trkpt>
      <trkpt lat="48.6924" lon="2.46637">
        <ele>129.51</ele>
        <time>2014-01-05T09:18:57Z</time>
      </trkpt>
      <trkpt lat="48.6922" lon="2.46653">
        <ele>130.77</ele>
        <time>2014-01-05T09:19:17Z</time>
      </trkpt>
      <trkpt lat="48.692" lon="2.46672">
        <ele>132.77</ele>
        <time>2014-01-05T09:20:53Z</time>
      </trkpt>
      <trkpt lat="48.6918" lon="2.46691">
        <ele>130.56</ele>
        <time>2014-01-05T09:21:10Z</time>
      </trkpt>
      <trkpt lat="48.69162" lon="2.46714">
        <ele>129.4</ele>
        <time>2014-01-05T09:21:29Z</time>
      </trkpt>
      <trkpt lat="48.69143" lon="2.46731">
        <ele>129.54</ele>
        <time>2014-01-05T09:21:46Z</time>
      </trkpt>
      <trkpt lat="48.69123" lon="2.46749">
        <ele>130.5</ele>
        <time>2014-01-05T09:22:03Z</time>
      </trkpt>
      <trkpt lat="48.69103" lon="2.46765">
        <ele>130.76</ele>
        <time>2014-01-05T09:22:17Z</time>
      </trkpt>
      <trkpt lat="48.69084" lon="2.46784">
        <ele>131.11</ele>
        <time>2014-01-05T09:22:39Z</time>
      </trkpt>
      <trkpt lat="48.69062" lon="2.46785">
        <ele>133.22</ele>
        <time>2014-01-05T09:22:57Z</time>
      </trkpt>
      <trkpt lat="48.6904" lon="2.46778">
        <ele>135.79</ele>
        <time>2014-01-05T09:23:14Z</time>
      </trkpt>
      <trkpt lat="48.69017" lon="2.46771">
        <ele>136.53</ele>
        <time>2014-01-05T09:24:02Z</time>
      </trkpt>
      <trkpt lat="48.68995" lon="2.46763">
        <ele>136.19</ele>
        <time>2014-01-05T09:24:21Z</time>
      </trkpt>
      <trkpt lat="48.68971" lon="2.46763">
        <ele>136.63</ele>
        <time>2014-01-05T09:24:38Z</time>
      </trkpt>
      <trkpt lat="48.68951" lon="2.46745">
        <ele>138.46</ele>
        <time>2014-01-05T09:24:59Z</time>
      </trkpt>
      <trkpt lat="48.68928" lon="2.46744">
        <ele>135.72</ele>
        <time>2014-01-05T09:25:47Z</time>
      </trkpt>
      <trkpt lat="48.68906" lon="2.46733">
        <ele>138.57</ele>
        <time>2014-01-05T09:26:11Z</time>
      </trkpt>
      <trkpt lat="48.68884" lon="2.4672">
        <ele>140.66</ele>
        <time>2014-01-05T09:26:27Z</time>
      </trkpt>
      <trkpt lat="48.68862" lon="2.46712">
        <ele>142.35</ele>
        <time>2014-01-05T09:26:49Z</time>
      </trkpt>
      <trkpt lat="48.68839" lon="2.46708">
        <ele>142.89</ele>
        <time>2014-01-05T09:27:10Z</time>
      </trkpt>
      <trkpt lat="48.68817" lon="2.46697">
        <ele>144.89</ele>
        <time>2014-01-05T09:27:29Z</time>
      </trkpt>
      <trkpt lat="48.68794" lon="2.46687">
        <ele>144.2</ele>
        <time>2014-01-05T09:27:47Z</time>
      </trkpt>
      <trkpt lat="48.68772" lon="2.4668">
        <ele>142.62</ele>
        <time>2014-01-05T09:28:06Z</time>
      </trkpt>
      <trkpt lat="48.6875" lon="2.46672">
        <ele>143.01</ele>
        <time>2014-01-05T09:28:29Z</time>
      </trkpt>
      <trkpt lat="48.68728" lon="2.46661">
        <ele>144.43</ele>
        <time>2014-01-05T09:28:44Z</time>
      </trkpt>
      <trkpt lat="48.68705" lon="2.46648">
        <ele>145.76</ele>
        <time>2014-01-05T09:29:04Z</time>
      </trkpt>
      <trkpt lat="48.68682" lon="2.46641">
        <ele>144.66</ele>
        <time>2014-01-05T09:29:21Z</time>
      </trkpt>
      <trkpt lat="48.6866" lon="2.46634">
        <ele>141.88</ele>
        <time>2014-01-05T09:29:41Z</time>
      </trkpt>
      <trkpt lat="48.68646" lon="2.46662">
        <ele>140.84</ele>
        <time>2014-01-05T09:29:59Z</time>
      </trkpt>
      <trkpt lat="48.6863" lon="2.46686">
        <ele>140.07</ele>
        <time>2014-01-05T09:30:16Z</time>
      </trkpt>
      <trkpt lat="48.68611" lon="2.46706">
        <ele>139.34</ele>
        <time>2014-01-05T09:30:33Z</time>
      </trkpt>
      <trkpt lat="48.68594" lon="2.46731">
        <ele>139.04</ele>
        <time>2014-01-05T09:30:57Z</time>
      </trkpt>
      <trkpt lat="48.68578" lon="2.46758">
        <ele>136.97</ele>
        <time>2014-01-05T09:31:17Z</time>
      </trkpt>
      <trkpt lat="48.68558" lon="2.46777">
        <ele>136.74</ele>
        <time>2014-01-05T09:31:36Z</time>
      </trkpt>
      <trkpt lat="48.68539" lon="2.46797">
        <ele>135.3</ele>
        <time>2014-01-05T09:31:55Z</time>
      </trkpt>
      <trkpt lat="48.68521" lon="2.46821">
        <ele>134.23</ele>
        <time>2014-01-05T09:32:13Z</time>
      </trkpt>
      <trkpt lat="48.68502" lon="2.46842">
        <ele>135.85</ele>
        <time>2014-01-05T09:32:32Z</time>
      </trkpt>
      <trkpt lat="48.68485" lon="2.46865">
        <ele>135.88</ele>
        <time>2014-01-05T09:32:51Z</time>
      </trkpt>
      <trkpt lat="48.68469" lon="2.46891">
        <ele>136</ele>
        <time>2014-01-05T09:33:11Z</time>
      </trkpt>
      <trkpt lat="48.68452" lon="2.46914">
        <ele>136.54</ele>
        <time>2014-01-05T09:33:29Z</time>
      </trkpt>
      <trkpt lat="48.68434" lon="2.46936">
        <ele>136.62</ele>
        <time>2014-01-05T09:33:46Z</time>
      </trkpt>
      <trkpt lat="48.68415" lon="2.46957">
        <ele>134.79</ele>
        <time>2014-01-05T09:34:04Z</time>
      </trkpt>
      <trkpt lat="48.68403" lon="2.46986">
        <ele>132.55</ele>
        <time>2014-01-05T09:34:24Z</time>
      </trkpt>
      <trkpt lat="48.68384" lon="2.47007">
        <ele>133.35</ele>
        <time>2014-01-05T09:34:44Z</time>
      </trkpt>
      <trkpt lat="48.68368" lon="2.47033">
        <ele>133.35</ele>
        <time>2014-01-05T09:35:05Z</time>
      </trkpt>
      <trkpt lat="48.68351" lon="2.47056">
        <ele>133.34</ele>
        <time>2014-01-05T09:35:43Z</time>
      </trkpt>
      <trkpt lat="48.68332" lon="2.47078">
        <ele>128.99</ele>
        <time>2014-01-05T09:40:59Z</time>
      </trkpt>
      <trkpt lat="48.68313" lon="2.47099">
        <ele>129.73</ele>
        <time>2014-01-05T09:41:20Z</time>
      </trkpt>
      <trkpt lat="48.68296" lon="2.47122">
        <ele>130.36</ele>
        <time>2014-01-05T09:41:41Z</time>
      </trkpt>
      <trkpt lat="48.68278" lon="2.47145">
        <ele>131.19</ele>
        <time>2014-01-05T09:42:29Z</time>
      </trkpt>
      <trkpt lat="48.6826" lon="2.47167">
        <ele>130.49</ele>
        <time>2014-01-05T09:42:47Z</time>
      </trkpt>
      <trkpt lat="48.68242" lon="2.47189">
        <ele>130.6</ele>
        <time>2014-01-05T09:43:06Z</time>
      </trkpt>
      <trkpt lat="48.68225" lon="2.47214">
        <ele>130.82</ele>
        <time>2014-01-05T09:43:25Z</time>
      </trkpt>
      <trkpt lat="48.68208" lon="2.47238">
        <ele>130.82</ele>
        <time>2014-01-05T09:43:44Z</time>
      </trkpt>
      <trkpt lat="48.6819" lon="2.47259">
        <ele>131.69</ele>
        <time>2014-01-05T09:44:02Z</time>
      </trkpt>
      <trkpt lat="48.68173" lon="2.47282">
        <ele>132.5</ele>
        <time>2014-01-05T09:44:21Z</time>
      </trkpt>
      <trkpt lat="48.68157" lon="2.47306">
        <ele>132.83</ele>
        <time>2014-01-05T09:44:39Z</time>
      </trkpt>
      <trkpt lat="48.68138" lon="2.47326">
        <ele>132.17</ele>
        <time>2014-01-05T09:44:59Z</time>
      </trkpt>
      <trkpt lat="48.68119" lon="2.47346">
        <ele>132.11</ele>
        <time>2014-01-05T09:45:17Z</time>
      </trkpt>
      <trkpt lat="48.68103" lon="2.4737">
        <ele>131.95</ele>
        <time>2014-01-05T09:45:36Z</time>
      </trkpt>
      <trkpt lat="48.68085" lon="2.47392">
        <ele>130.01</ele>
        <time>2014-01-05T09:45:54Z</time>
      </trkpt>
      <trkpt lat="48.68068" lon="2.47414">
        <ele>129.5</ele>
        <time>2014-01-05T09:46:12Z</time>
      </trkpt>
      <trkpt lat="48.6805" lon="2.47437">
        <ele>129.93</ele>
        <time>2014-01-05T09:46:32Z</time>
      </trkpt>
      <trkpt lat="48.68032" lon="2.47458">
        <ele>130.18</ele>
        <time>2014-01-05T09:46:50Z</time>
      </trkpt>
      <trkpt lat="48.68014" lon="2.47481">
        <ele>129.26</ele>
        <time>2014-01-05T09:47:10Z</time>
      </trkpt>
      <trkpt lat="48.67997" lon="2.47504">
        <ele>128.99</ele>
        <time>2014-01-05T09:47:29Z</time>
      </trkpt>
      <trkpt lat="48.67978" lon="2.47526">
        <ele>130.61</ele>
        <time>2014-01-05T09:47:49Z</time>
      </trkpt>
      <trkpt lat="48.67961" lon="2.47548">
        <ele>131.79</ele>
        <time>2014-01-05T09:48:08Z</time>
      </trkpt>
      <trkpt lat="48.67944" lon="2.47572">
        <ele>131.79</ele>
        <time>2014-01-05T09:48:27Z</time>
      </trkpt>
      <trkpt lat="48.67927" lon="2.47596">
        <ele>132.59</ele>
        <time>2014-01-05T09:48:44Z</time>
      </trkpt>
      <trkpt lat="48.67909" lon="2.47616">
        <ele>133.62</ele>
        <time>2014-01-05T09:49:03Z</time>
      </trkpt>
      <trkpt lat="48.67892" lon="2.4764">
        <ele>135.8</ele>
        <time>2014-01-05T09:49:23Z</time>
      </trkpt>
      <trkpt lat="48.67872" lon="2.4766">
        <ele>136.38</ele>
        <time>2014-01-05T09:49:43Z</time>
      </trkpt>
      <trkpt lat="48.67855" lon="2.47684">
        <ele>135.58</ele>
        <time>2014-01-05T09:50:03Z</time>
      </trkpt>
      <trkpt lat="48.67838" lon="2.47709">
        <ele>135</ele>
        <time>2014-01-05T09:50:22Z</time>
      </trkpt>
      <trkpt lat="48.67819" lon="2.47731">
        <ele>134.78</ele>
        <time>2014-01-05T09:50:41Z</time>
      </trkpt>
      <trkpt lat="48.67799" lon="2.47751">
        <ele>134.36</ele>
        <time>2014-01-05T09:51:01Z</time>
      </trkpt>
      <trkpt lat="48.67782" lon="2.47774">
        <ele>133.81</ele>
        <time>2014-01-05T09:51:20Z</time>
      </trkpt>
      <trkpt lat="48.67766" lon="2.47798">
        <ele>133.26</ele>
        <time>2014-01-05T09:51:43Z</time>
      </trkpt>
      <trkpt lat="48.67748" lon="2.4782">
        <ele>132.81</ele>
        <time>2014-01-05T09:52:02Z</time>
      </trkpt>
      <trkpt lat="48.67731" lon="2.47843">
        <ele>133.89</ele>
        <time>2014-01-05T09:52:22Z</time>
      </trkpt>
      <trkpt lat="48.67715" lon="2.47868">
        <ele>134.77</ele>
        <time>2014-01-05T09:52:41Z</time>
      </trkpt>
      <trkpt lat="48.67696" lon="2.47887">
        <ele>134.48</ele>
        <time>2014-01-05T09:52:57Z</time>
      </trkpt>
      <trkpt lat="48.67679" lon="2.4791">
        <ele>136.65</ele>
        <time>2014-01-05T09:53:18Z</time>
      </trkpt>
      <trkpt lat="48.67661" lon="2.4793">
        <ele>136.28</ele>
        <time>2014-01-05T09:53:41Z</time>
      </trkpt>
      <trkpt lat="48.67644" lon="2.47953">
        <ele>137.87</ele>
        <time>2014-01-05T09:54:01Z</time>
      </trkpt>
      <trkpt lat="48.67625" lon="2.47974">
        <ele>138.91</ele>
        <time>2014-01-05T09:54:20Z</time>
      </trkpt>
      <trkpt lat="48.67608" lon="2.47999">
        <ele>138.7</ele>
        <time>2014-01-05T09:54:39Z</time>
      </trkpt>
      <trkpt lat="48.67593" lon="2.48026">
        <ele>139.83</ele>
        <time>2014-01-05T09:55:00Z</time>
      </trkpt>
      <trkpt lat="48.67577" lon="2.48051">
        <ele>140.16</ele>
        <time>2014-01-05T09:55:23Z</time>
      </trkpt>
      <trkpt lat="48.67558" lon="2.48069">
        <ele>140.21</ele>
        <time>2014-01-05T09:55:38Z</time>
      </trkpt>
      <trkpt lat="48.6754" lon="2.48093">
        <ele>141</ele>
        <time>2014-01-05T09:55:57Z</time>
      </trkpt>
      <trkpt lat="48.67522" lon="2.48114">
        <ele>142.04</ele>
        <time>2014-01-05T09:56:20Z</time>
      </trkpt>
      <trkpt lat="48.67505" lon="2.48136">
        <ele>142.92</ele>
        <time>2014-01-05T09:56:37Z</time>
      </trkpt>
      <trkpt lat="48.67488" lon="2.4816">
        <ele>142.99</ele>
        <time>2014-01-05T09:57:00Z</time>
      </trkpt>
      <trkpt lat="48.6747" lon="2.48182">
        <ele>142</ele>
        <time>2014-01-05T09:57:14Z</time>
      </trkpt>
      <trkpt lat="48.67452" lon="2.48205">
        <ele>140.53</ele>
        <time>2014-01-05T09:57:34Z</time>
      </trkpt>
      <trkpt lat="48.67437" lon="2.48231">
        <ele>139.85</ele>
        <time>2014-01-05T09:57:56Z</time>
      </trkpt>
      <trkpt lat="48.67418" lon="2.48251">
        <ele>140.83</ele>
        <time>2014-01-05T09:58:12Z</time>
      </trkpt>
      <trkpt lat="48.67402" lon="2.48274">
        <ele>138.27</ele>
        <time>2014-01-05T09:58:34Z</time>
      </trkpt>
      <trkpt lat="48.67384" lon="2.48295">
        <ele>137.91</ele>
        <time>2014-01-05T09:58:52Z</time>
      </trkpt>
      <trkpt lat="48.67365" lon="2.48316">
        <ele>138.33</ele>
        <time>2014-01-05T09:59:14Z</time>
      </trkpt>
      <trkpt lat="48.67346" lon="2.48338">
        <ele>138.78</ele>
        <time>2014-01-05T09:59:28Z</time>
      </trkpt>
      <trkpt lat="48.67329" lon="2.48362">
        <ele>137.29</ele>
        <time>2014-01-05T09:59:49Z</time>
      </trkpt>
      <trkpt lat="48.67311" lon="2.48383">
        <ele>136.12</ele>
        <time>2014-01-05T10:00:07Z</time>
      </trkpt>
      <trkpt lat="48.67296" lon="2.4841">
        <ele>136.73</ele>
        <time>2014-01-05T10:00:29Z</time>
      </trkpt>
      <trkpt lat="48.67277" lon="2.48429">
        <ele>137.68</ele>
        <time>2014-01-05T10:00:50Z</time>
      </trkpt>
      <trkpt lat="48.67259" lon="2.48452">
        <ele>136.38</ele>
        <time>2014-01-05T10:01:10Z</time>
      </trkpt>
      <trkpt lat="48.67241" lon="2.48476">
        <ele>135.96</ele>
        <time>2014-01-05T10:01:36Z</time>
      </trkpt>
      <trkpt lat="48.67222" lon="2.48497">
        <ele>136.44</ele>
        <time>2014-01-05T10:01:51Z</time>
      </trkpt>
      <trkpt lat="48.67204" lon="2.48519">
        <ele>137.04</ele>
        <time>2014-01-05T10:02:09Z</time>
      </trkpt>
      <trkpt lat="48.67187" lon="2.48544">
        <ele>137.47</ele>
        <time>2014-01-05T10:02:29Z</time>
      </trkpt>
      <trkpt lat="48.67171" lon="2.48569">
        <ele>134.44</ele>
        <time>2014-01-05T10:02:45Z</time>
      </trkpt>
      <trkpt lat="48.67156" lon="2.48597">
        <ele>131.09</ele>
        <time>2014-01-05T10:03:05Z</time>
      </trkpt>
      <trkpt lat="48.67138" lon="2.48617">
        <ele>129.96</ele>
        <time>2014-01-05T10:03:26Z</time>
      </trkpt>
      <trkpt lat="48.67119" lon="2.48637">
        <ele>129.02</ele>
        <time>2014-01-05T10:03:43Z</time>
      </trkpt>
      <trkpt lat="48.67101" lon="2.4866">
        <ele>129.77</ele>
        <time>2014-01-05T10:04:05Z</time>
      </trkpt>
      <trkpt lat="48.67088" lon="2.48687">
        <ele>131.23</ele>
        <time>2014-01-05T10:04:29Z</time>
      </trkpt>
      <trkpt lat="48.67067" lon="2.48703">
        <ele>130.67</ele>
        <time>2014-01-05T10:07:13Z</time>
      </trkpt>
      <trkpt lat="48.67052" lon="2.4873">
        <ele>131.74</ele>
        <time>2014-01-05T10:07:40Z</time>
      </trkpt>
      <trkpt lat="48.67032" lon="2.48748">
        <ele>133.77</ele>
        <time>2014-01-05T10:07:59Z</time>
      </trkpt>
      <trkpt lat="48.67014" lon="2.48769">
        <ele>134.6</ele>
        <time>2014-01-05T10:08:16Z</time>
      </trkpt>
      <trkpt lat="48.66995" lon="2.48791">
        <ele>134.47</ele>
        <time>2014-01-05T10:08:36Z</time>
      </trkpt>
      <trkpt lat="48.66978" lon="2.48817">
        <ele>133.65</ele>
        <time>2014-01-05T10:08:58Z</time>
      </trkpt>
      <trkpt lat="48.66962" lon="2.48841">
        <ele>133.71</ele>
        <time>2014-01-05T10:09:16Z</time>
      </trkpt>
      <trkpt lat="48.66945" lon="2.48865">
        <ele>132.69</ele>
        <time>2014-01-05T10:09:34Z</time>
      </trkpt>
      <trkpt lat="48.66927" lon="2.48886">
        <ele>133.3</ele>
        <time>2014-01-05T10:09:53Z</time>
      </trkpt>
      <trkpt lat="48.66908" lon="2.48903">
        <ele>134.57</ele>
        <time>2014-01-05T10:10:12Z</time>
      </trkpt>
      <trkpt lat="48.66892" lon="2.48927">
        <ele>136.7</ele>
        <time>2014-01-05T10:10:31Z</time>
      </trkpt>
      <trkpt lat="48.66875" lon="2.48952">
        <ele>135.26</ele>
        <time>2014-01-05T10:10:49Z</time>
      </trkpt>
      <trkpt lat="48.66858" lon="2.48974">
        <ele>135.58</ele>
        <time>2014-01-05T10:11:07Z</time>
      </trkpt>
      <trkpt lat="48.66838" lon="2.48995">
        <ele>135.67</ele>
        <time>2014-01-05T10:11:23Z</time>
      </trkpt>
      <trkpt lat="48.66826" lon="2.49023">
        <ele>134.2</ele>
        <time>2014-01-05T10:11:49Z</time>
      </trkpt>
      <trkpt lat="48.66807" lon="2.49044">
        <ele>132.4</ele>
        <time>2014-01-05T10:12:11Z</time>
      </trkpt>
      <trkpt lat="48.66789" lon="2.49067">
        <ele>131.98</ele>
        <time>2014-01-05T10:12:28Z</time>
      </trkpt>
      <trkpt lat="48.66772" lon="2.49088">
        <ele>132.63</ele>
        <time>2014-01-05T10:12:47Z</time>
      </trkpt>
      <trkpt lat="48.66754" lon="2.49112">
        <ele>132.85</ele>
        <time>2014-01-05T10:13:07Z</time>
      </trkpt>
      <trkpt lat="48.66737" lon="2.49134">
        <ele>132.23</ele>
        <time>2014-01-05T10:13:23Z</time>
      </trkpt>
      <trkpt lat="48.66718" lon="2.49154">
        <ele>132.47</ele>
        <time>2014-01-05T10:13:41Z</time>
      </trkpt>
      <trkpt lat="48.667" lon="2.49176">
        <ele>132.07</ele>
        <time>2014-01-05T10:13:59Z</time>
      </trkpt>
      <trkpt lat="48.66682" lon="2.49199">
        <ele>131.7</ele>
        <time>2014-01-05T10:14:17Z</time>
      </trkpt>
      <trkpt lat="48.66669" lon="2.49227">
        <ele>130.88</ele>
        <time>2014-01-05T10:14:37Z</time>
      </trkpt>
      <trkpt lat="48.6665" lon="2.49246">
        <ele>130.95</ele>
        <time>2014-01-05T10:14:55Z</time>
      </trkpt>
      <trkpt lat="48.66633" lon="2.4927">
        <ele>131.96</ele>
        <time>2014-01-05T10:15:14Z</time>
      </trkpt>
      <trkpt lat="48.66616" lon="2.49294">
        <ele>132</ele>
        <time>2014-01-05T10:15:30Z</time>
      </trkpt>
      <trkpt lat="48.666" lon="2.49319">
        <ele>133.19</ele>
        <time>2014-01-05T10:15:57Z</time>
      </trkpt>
      <trkpt lat="48.66577" lon="2.49316">
        <ele>133.25</ele>
        <time>2014-01-05T10:17:45Z</time>
      </trkpt>
      <trkpt lat="48.66556" lon="2.49302">
        <ele>132.66</ele>
        <time>2014-01-05T10:18:07Z</time>
      </trkpt>
      <trkpt lat="48.66533" lon="2.49298">
        <ele>132.7</ele>
        <time>2014-01-05T10:18:28Z</time>
      </trkpt>
      <trkpt lat="48.6651" lon="2.49291">
        <ele>132.41</ele>
        <time>2014-01-05T10:18:45Z</time>
      </trkpt>
      <trkpt lat="48.66487" lon="2.4929">
        <ele>132.16</ele>
        <time>2014-01-05T10:19:02Z</time>
      </trkpt>
      <trkpt lat="48.66464" lon="2.49285">
        <ele>131.88</ele>
        <time>2014-01-05T10:19:19Z</time>
      </trkpt>
      <trkpt lat="48.66441" lon="2.4928">
        <ele>131.63</ele>
        <time>2014-01-05T10:19:41Z</time>
      </trkpt>
      <trkpt lat="48.66417" lon="2.49274">
        <ele>131.16</ele>
        <time>2014-01-05T10:20:01Z</time>
      </trkpt>
      <trkpt lat="48.66397" lon="2.4926">
        <ele>131.04</ele>
        <time>2014-01-05T10:20:17Z</time>
      </trkpt>
      <trkpt lat="48.66375" lon="2.4925">
        <ele>130.97</ele>
        <time>2014-01-05T10:20:36Z</time>
      </trkpt>
      <trkpt lat="48.66353" lon="2.49249">
        <ele>129.69</ele>
        <time>2014-01-05T10:20:58Z</time>
      </trkpt>
      <trkpt lat="48.6633" lon="2.4926">
        <ele>133.56</ele>
        <time>2014-01-05T10:21:35Z</time>
      </trkpt>
      <trkpt lat="48.66308" lon="2.49256">
        <ele>133.63</ele>
        <time>2014-01-05T10:22:00Z</time>
      </trkpt>
      <trkpt lat="48.66285" lon="2.4925">
        <ele>135.19</ele>
        <time>2014-01-05T10:22:22Z</time>
      </trkpt>
      <trkpt lat="48.66262" lon="2.49256">
        <ele>133.86</ele>
        <time>2014-01-05T10:22:35Z</time>
      </trkpt>
      <trkpt lat="48.6624" lon="2.49258">
        <ele>131.6</ele>
        <time>2014-01-05T10:22:52Z</time>
      </trkpt>
      <trkpt lat="48.66217" lon="2.49257">
        <ele>130.81</ele>
        <time>2014-01-05T10:23:15Z</time>
      </trkpt>
      <trkpt lat="48.66194" lon="2.49258">
        <ele>129.97</ele>
        <time>2014-01-05T10:23:38Z</time>
      </trkpt>
      <trkpt lat="48.66171" lon="2.49258">
        <ele>129.16</ele>
        <time>2014-01-05T10:23:55Z</time>
      </trkpt>
      <trkpt lat="48.66149" lon="2.49251">
        <ele>126.98</ele>
        <time>2014-01-05T10:24:16Z</time>
      </trkpt>
      <trkpt lat="48.66125" lon="2.49256">
        <ele>127.42</ele>
        <time>2014-01-05T10:24:36Z</time>
      </trkpt>
      <trkpt lat="48.661" lon="2.49262">
        <ele>128.34</ele>
        <time>2014-01-05T10:24:51Z</time>
      </trkpt>
      <trkpt lat="48.66077" lon="2.49269">
        <ele>127.03</ele>
        <time>2014-01-05T10:25:05Z</time>
      </trkpt>
      <trkpt lat="48.66055" lon="2.4928">
        <ele>125.26</ele>
        <time>2014-01-05T10:25:21Z</time>
      </trkpt>
      <trkpt lat="48.66031" lon="2.49287">
        <ele>123.16</ele>
        <time>2014-01-05T10:25:36Z</time>
      </trkpt>
      <trkpt lat="48.66009" lon="2.49296">
        <ele>121.69</ele>
        <time>2014-01-05T10:25:54Z</time>
      </trkpt>
      <trkpt lat="48.65989" lon="2.49313">
        <ele>122.76</ele>
        <time>2014-01-05T10:26:14Z</time>
      </trkpt>
      <trkpt lat="48.65969" lon="2.49332">
        <ele>123.42</ele>
        <time>2014-01-05T10:26:34Z</time>
      </trkpt>
      <trkpt lat="48.65949" lon="2.49346">
        <ele>124.31</ele>
        <time>2014-01-05T10:26:51Z</time>
      </trkpt>
      <trkpt lat="48.65945" lon="2.49311">
        <ele>123.02</ele>
        <time>2014-01-05T10:28:00Z</time>
      </trkpt>
      <trkpt lat="48.65935" lon="2.4928">
        <ele>122.05</ele>
        <time>2014-01-05T10:28:22Z</time>
      </trkpt>
      <trkpt lat="48.65918" lon="2.49257">
        <ele>124.68</ele>
        <time>2014-01-05T10:29:34Z</time>
      </trkpt>
      <trkpt lat="48.65899" lon="2.49236">
        <ele>126.62</ele>
        <time>2014-01-05T10:29:55Z</time>
      </trkpt>
      <trkpt lat="48.65882" lon="2.49215">
        <ele>126.94</ele>
        <time>2014-01-05T10:30:17Z</time>
      </trkpt>
      <trkpt lat="48.65859" lon="2.49226">
        <ele>118.45</ele>
        <time>2014-01-05T10:30:24Z</time>
      </trkpt>
      <trkpt lat="48.65836" lon="2.49228">
        <ele>123.52</ele>
        <time>2014-01-05T10:31:22Z</time>
      </trkpt>
      <trkpt lat="48.65814" lon="2.49231">
        <ele>124.78</ele>
        <time>2014-01-05T10:31:47Z</time>
      </trkpt>
      <trkpt lat="48.65789" lon="2.4923">
        <ele>124.18</ele>
        <time>2014-01-05T10:32:06Z</time>
      </trkpt>
      <trkpt lat="48.65766" lon="2.4923">
        <ele>124.77</ele>
        <time>2014-01-05T10:32:22Z</time>
      </trkpt>
      <trkpt lat="48.65743" lon="2.49233">
        <ele>125.36</ele>
        <time>2014-01-05T10:32:37Z</time>
      </trkpt>
      <trkpt lat="48.6572" lon="2.49238">
        <ele>127.25</ele>
        <time>2014-01-05T10:32:52Z</time>
      </trkpt>
      <trkpt lat="48.65698" lon="2.49249">
        <ele>126.56</ele>
        <time>2014-01-05T10:33:11Z</time>
      </trkpt>
      <trkpt lat="48.65676" lon="2.49259">
        <ele>123.41</ele>
        <time>2014-01-05T10:33:33Z</time>
      </trkpt>
      <trkpt lat="48.65653" lon="2.49263">
        <ele>122.77</ele>
        <time>2014-01-05T10:33:50Z</time>
      </trkpt>
      <trkpt lat="48.6563" lon="2.49265">
        <ele>123.76</ele>
        <time>2014-01-05T10:34:12Z</time>
      </trkpt>
      <trkpt lat="48.65653" lon="2.49238">
        <ele>127.17</ele>
        <time>2014-01-05T10:36:00Z</time>
      </trkpt>
      <trkpt lat="48.6563" lon="2.49229">
        <ele>129.95</ele>
        <time>2014-01-05T10:36:38Z</time>
      </trkpt>
      <trkpt lat="48.65618" lon="2.492">
        <ele>130.51</ele>
        <time>2014-01-05T10:37:06Z</time>
      </trkpt>
      <trkpt lat="48.65598" lon="2.49183">
        <ele>131.24</ele>
        <time>2014-01-05T10:37:29Z</time>
      </trkpt>
      <trkpt lat="48.65579" lon="2.49162">
        <ele>131.75</ele>
        <time>2014-01-05T10:37:48Z</time>
      </trkpt>
      <trkpt lat="48.6556" lon="2.49144">
        <ele>132.57</ele>
        <time>2014-01-05T10:38:09Z</time>
      </trkpt>
      <trkpt lat="48.6554" lon="2.49127">
        <ele>131.47</ele>
        <time>2014-01-05T10:38:31Z</time>
      </trkpt>
      <trkpt lat="48.65519" lon="2.4911">
        <ele>132.97</ele>
        <time>2014-01-05T10:38:49Z</time>
      </trkpt>
      <trkpt lat="48.65498" lon="2.49095">
        <ele>131.51</ele>
        <time>2014-01-05T10:39:12Z</time>
      </trkpt>
      <trkpt lat="48.65477" lon="2.49082">
        <ele>131.59</ele>
        <time>2014-01-05T10:39:34Z</time>
      </trkpt>
      <trkpt lat="48.65459" lon="2.49063">
        <ele>131.97</ele>
        <time>2014-01-05T10:39:52Z</time>
      </trkpt>
      <trkpt lat="48.65438" lon="2.49074">
        <ele>135.44</ele>
        <time>2014-01-05T10:40:47Z</time>
      </trkpt>
      <trkpt lat="48.65415" lon="2.49065">
        <ele>130.5</ele>
        <time>2014-01-05T10:42:05Z</time>
      </trkpt>
      <trkpt lat="48.65395" lon="2.49047">
        <ele>131.28</ele>
        <time>2014-01-05T10:42:28Z</time>
      </trkpt>
      <trkpt lat="48.65372" lon="2.49046">
        <ele>130.67</ele>
        <time>2014-01-05T10:42:43Z</time>
      </trkpt>
      <trkpt lat="48.6535" lon="2.4904">
        <ele>130.38</ele>
        <time>2014-01-05T10:42:59Z</time>
      </trkpt>
      <trkpt lat="48.65326" lon="2.49044">
        <ele>131.65</ele>
        <time>2014-01-05T10:43:15Z</time>
      </trkpt>
      <trkpt lat="48.65304" lon="2.4904">
        <ele>132.44</ele>
        <time>2014-01-05T10:43:33Z</time>
      </trkpt>
      <trkpt lat="48.65282" lon="2.49033">
        <ele>133.93</ele>
        <time>2014-01-05T10:43:50Z</time>
      </trkpt>
      <trkpt lat="48.65259" lon="2.49029">
        <ele>135.6</ele>
        <time>2014-01-05T10:44:11Z</time>
      </trkpt>
      <trkpt lat="48.65238" lon="2.49014">
        <ele>137.1</ele>
        <time>2014-01-05T10:44:36Z</time>
      </trkpt>
      <trkpt lat="48.65214" lon="2.49016">
        <ele>136.94</ele>
        <time>2014-01-05T10:44:51Z</time>
      </trkpt>
      <trkpt lat="48.65192" lon="2.49009">
        <ele>137.39</ele>
        <time>2014-01-05T10:45:09Z</time>
      </trkpt>
      <trkpt lat="48.65168" lon="2.49007">
        <ele>137.51</ele>
        <time>2014-01-05T10:45:30Z</time>
      </trkpt>
      <trkpt lat="48.65144" lon="2.49013">
        <ele>136.73</ele>
        <time>2014-01-05T10:45:47Z</time>
      </trkpt>
      <trkpt lat="48.65121" lon="2.49021">
        <ele>135.63</ele>
        <time>2014-01-05T10:46:03Z</time>
      </trkpt>
      <trkpt lat="48.65099" lon="2.49026">
        <ele>133.65</ele>
        <time>2014-01-05T10:46:12Z</time>
      </trkpt>
      <trkpt lat="48.65076" lon="2.49034">
        <ele>134.1</ele>
        <time>2014-01-05T10:46:29Z</time>
      </trkpt>
      <trkpt lat="48.65053" lon="2.49038">
        <ele>132.91</ele>
        <time>2014-01-05T10:46:46Z</time>
      </trkpt>
      <trkpt lat="48.65031" lon="2.49048">
        <ele>133.39</ele>
        <time>2014-01-05T10:47:05Z</time>
      </trkpt>
      <trkpt lat="48.65012" lon="2.49068">
        <ele>132.58</ele>
        <time>2014-01-05T10:47:28Z</time>
      </trkpt>
      <trkpt lat="48.64996" lon="2.49095">
        <ele>131.8</ele>
        <time>2014-01-05T10:47:44Z</time>
      </trkpt>
      <trkpt lat="48.64981" lon="2.49121">
        <ele>130.19</ele>
        <time>2014-01-05T10:48:07Z</time>
      </trkpt>
      <trkpt lat="48.64966" lon="2.49147">
        <ele>128.67</ele>
        <time>2014-01-05T10:48:31Z</time>
      </trkpt>
      <trkpt lat="48.64952" lon="2.49175">
        <ele>126.78</ele>
        <time>2014-01-05T10:48:52Z</time>
      </trkpt>
      <trkpt lat="48.64937" lon="2.49201">
        <ele>127.56</ele>
        <time>2014-01-05T10:49:11Z</time>
      </trkpt>
      <trkpt lat="48.64923" lon="2.49229">
        <ele>128.25</ele>
        <time>2014-01-05T10:49:32Z</time>
      </trkpt>
      <trkpt lat="48.64907" lon="2.49257">
        <ele>127.3</ele>
        <time>2014-01-05T10:49:52Z</time>
      </trkpt>
      <trkpt lat="48.64892" lon="2.49282">
        <ele>126.9</ele>
        <time>2014-01-05T10:50:11Z</time>
      </trkpt>
      <trkpt lat="48.64878" lon="2.4931">
        <ele>126.56</ele>
        <time>2014-01-05T10:50:32Z</time>
      </trkpt>
      <trkpt lat="48.64864" lon="2.49337">
        <ele>127.3</ele>
        <time>2014-01-05T10:50:53Z</time>
      </trkpt>
      <trkpt lat="48.6485" lon="2.49365">
        <ele>127.64</ele>
        <time>2014-01-05T10:51:11Z</time>
      </trkpt>
      <trkpt lat="48.64837" lon="2.49395">
        <ele>127.62</ele>
        <time>2014-01-05T10:51:29Z</time>
      </trkpt>
      <trkpt lat="48.64821" lon="2.49421">
        <ele>129.08</ele>
        <time>2014-01-05T10:51:46Z</time>
      </trkpt>
      <trkpt lat="48.64814" lon="2.49453">
        <ele>127.28</ele>
        <time>2014-01-05T10:52:05Z</time>
      </trkpt>
      <trkpt lat="48.64805" lon="2.49485">
        <ele>128.87</ele>
        <time>2014-01-05T10:52:30Z</time>
      </trkpt>
      <trkpt lat="48.64785" lon="2.49502">
        <ele>128.55</ele>
        <time>2014-01-05T10:52:45Z</time>
      </trkpt>
      <trkpt lat="48.64764" lon="2.49515">
        <ele>129.67</ele>
        <time>2014-01-05T10:53:02Z</time>
      </trkpt>
      <trkpt lat="48.64745" lon="2.49535">
        <ele>128.56</ele>
        <time>2014-01-05T10:53:18Z</time>
      </trkpt>
      <trkpt lat="48.64732" lon="2.49565">
        <ele>128.12</ele>
        <time>2014-01-05T10:53:38Z</time>
      </trkpt>
      <trkpt lat="48.64714" lon="2.49588">
        <ele>126.13</ele>
        <time>2014-01-05T10:53:54Z</time>
      </trkpt>
      <trkpt lat="48.64692" lon="2.49596">
        <ele>125.09</ele>
        <time>2014-01-05T10:54:12Z</time>
      </trkpt>
      <trkpt lat="48.64672" lon="2.49614">
        <ele>125.88</ele>
        <time>2014-01-05T10:54:31Z</time>
      </trkpt>
      <trkpt lat="48.64656" lon="2.49639">
        <ele>123.52</ele>
        <time>2014-01-05T10:54:47Z</time>
      </trkpt>
      <trkpt lat="48.6464" lon="2.49664">
        <ele>123.6</ele>
        <time>2014-01-05T10:55:22Z</time>
      </trkpt>
      <trkpt lat="48.64618" lon="2.49678">
        <ele>123.79</ele>
        <time>2014-01-05T10:55:39Z</time>
      </trkpt>
      <trkpt lat="48.64603" lon="2.49703">
        <ele>124.67</ele>
        <time>2014-01-05T10:55:59Z</time>
      </trkpt>
      <trkpt lat="48.64585" lon="2.49726">
        <ele>124.85</ele>
        <time>2014-01-05T10:56:20Z</time>
      </trkpt>
      <trkpt lat="48.64566" lon="2.49745">
        <ele>125.2</ele>
        <time>2014-01-05T10:56:36Z</time>
      </trkpt>
      <trkpt lat="48.64547" lon="2.49765">
        <ele>125.8</ele>
        <time>2014-01-05T10:56:55Z</time>
      </trkpt>
      <trkpt lat="48.64532" lon="2.49792">
        <ele>124.52</ele>
        <time>2014-01-05T10:57:11Z</time>
      </trkpt>
      <trkpt lat="48.6452" lon="2.49823">
        <ele>124.99</ele>
        <time>2014-01-05T10:57:29Z</time>
      </trkpt>
      <trkpt lat="48.64499" lon="2.49837">
        <ele>123.85</ele>
        <time>2014-01-05T10:57:43Z</time>
      </trkpt>
      <trkpt lat="48.64483" lon="2.49862">
        <ele>122.08</ele>
        <time>2014-01-05T10:58:00Z</time>
      </trkpt>
      <trkpt lat="48.64468" lon="2.49887">
        <ele>118.69</ele>
        <time>2014-01-05T10:58:22Z</time>
      </trkpt>
      <trkpt lat="48.64449" lon="2.49905">
        <ele>114.09</ele>
        <time>2014-01-05T10:58:40Z</time>
      </trkpt>
      <trkpt lat="48.64428" lon="2.49924">
        <ele>110.24</ele>
        <time>2014-01-05T10:59:04Z</time>
      </trkpt>
      <trkpt lat="48.64409" lon="2.49942">
        <ele>109.88</ele>
        <time>2014-01-05T10:59:21Z</time>
      </trkpt>
      <trkpt lat="48.64394" lon="2.4997">
        <ele>111.85</ele>
        <time>2014-01-05T10:59:37Z</time>
      </trkpt>
      <trkpt lat="48.64376" lon="2.49991">
        <ele>113.33</ele>
        <time>2014-01-05T10:59:55Z</time>
      </trkpt>
      <trkpt lat="48.64353" lon="2.49995">
        <ele>115.4</ele>
        <time>2014-01-05T11:00:14Z</time>
      </trkpt>
      <trkpt lat="48.64338" lon="2.50022">
        <ele>120.35</ele>
        <time>2014-01-05T11:00:29Z</time>
      </trkpt>
      <trkpt lat="48.64322" lon="2.50045">
        <ele>123.5</ele>
        <time>2014-01-05T11:00:47Z</time>
      </trkpt>
      <trkpt lat="48.643" lon="2.50059">
        <ele>123.15</ele>
        <time>2014-01-05T11:01:05Z</time>
      </trkpt>
      <trkpt lat="48.64277" lon="2.50068">
        <ele>123.52</ele>
        <time>2014-01-05T11:01:28Z</time>
      </trkpt>
      <trkpt lat="48.64255" lon="2.50067">
        <ele>123.36</ele>
        <time>2014-01-05T11:01:48Z</time>
      </trkpt>
      <trkpt lat="48.64232" lon="2.50067">
        <ele>123.07</ele>
        <time>2014-01-05T11:02:07Z</time>
      </trkpt>
      <trkpt lat="48.64211" lon="2.50077">
        <ele>124.42</ele>
        <time>2014-01-05T11:02:25Z</time>
      </trkpt>
      <trkpt lat="48.64188" lon="2.50083">
        <ele>122.89</ele>
        <time>2014-01-05T11:02:44Z</time>
      </trkpt>
      <trkpt lat="48.64168" lon="2.50099">
        <ele>119.53</ele>
        <time>2014-01-05T11:03:05Z</time>
      </trkpt>
      <trkpt lat="48.64151" lon="2.50124">
        <ele>139.95</ele>
        <time>2014-01-05T11:03:25Z</time>
      </trkpt>
      <trkpt lat="48.64138" lon="2.50156">
        <ele>136.53</ele>
        <time>2014-01-05T11:03:50Z</time>
      </trkpt>
      <trkpt lat="48.64137" lon="2.5019">
        <ele>128.39</ele>
        <time>2014-01-05T11:04:43Z</time>
      </trkpt>
      <trkpt lat="48.64125" lon="2.50221">
        <ele>122.01</ele>
        <time>2014-01-05T11:05:11Z</time>
      </trkpt>
      <trkpt lat="48.64123" lon="2.50256">
        <ele>113.17</ele>
        <time>2014-01-05T11:05:36Z</time>
      </trkpt>
      <trkpt lat="48.64114" lon="2.50288">
        <ele>112.52</ele>
        <time>2014-01-05T11:06:01Z</time>
      </trkpt>
      <trkpt lat="48.64098" lon="2.50314">
        <ele>117.2</ele>
        <time>2014-01-05T11:06:21Z</time>
      </trkpt>
      <trkpt lat="48.64094" lon="2.50349">
        <ele>118.9</ele>
        <time>2014-01-05T11:06:33Z</time>
      </trkpt>
      <trkpt lat="48.6408" lon="2.50377">
        <ele>126.37</ele>
        <time>2014-01-05T11:06:52Z</time>
      </trkpt>
      <trkpt lat="48.64066" lon="2.50403">
        <ele>126.71</ele>
        <time>2014-01-05T11:07:19Z</time>
      </trkpt>
      <trkpt lat="48.64045" lon="2.50421">
        <ele>121.96</ele>
        <time>2014-01-05T11:07:40Z</time>
      </trkpt>
      <trkpt lat="48.64028" lon="2.50445">
        <ele>120.7</ele>
        <time>2014-01-05T11:07:59Z</time>
      </trkpt>
      <trkpt lat="48.64009" lon="2.50465">
        <ele>119.17</ele>
        <time>2014-01-05T11:08:19Z</time>
      </trkpt>
      <trkpt lat="48.63994" lon="2.50491">
        <ele>121.26</ele>
        <time>2014-01-05T11:08:39Z</time>
      </trkpt>
      <trkpt lat="48.63976" lon="2.50512">
        <ele>123</ele>
        <time>2014-01-05T11:09:00Z</time>
      </trkpt>
      <trkpt lat="48.63958" lon="2.50533">
        <ele>123.59</ele>
        <time>2014-01-05T11:09:18Z</time>
      </trkpt>
      <trkpt lat="48.63949" lon="2.50567">
        <ele>123.88</ele>
        <time>2014-01-05T11:09:41Z</time>
      </trkpt>
      <trkpt lat="48.63932" lon="2.5059">
        <ele>124.08</ele>
        <time>2014-01-05T11:10:02Z</time>
      </trkpt>
      <trkpt lat="48.6391" lon="2.50593">
        <ele>124.03</ele>
        <time>2014-01-05T11:10:16Z</time>
      </trkpt>
      <trkpt lat="48.63911" lon="2.50627">
        <ele>129.16</ele>
        <time>2014-01-05T11:10:43Z</time>
      </trkpt>
      <trkpt lat="48.63925" lon="2.50655">
        <ele>130.58</ele>
        <time>2014-01-05T11:11:03Z</time>
      </trkpt>
      <trkpt lat="48.63925" lon="2.50691">
        <ele>132.19</ele>
        <time>2014-01-05T11:11:21Z</time>
      </trkpt>
      <trkpt lat="48.63921" lon="2.50726">
        <ele>144.28</ele>
        <time>2014-01-05T11:11:46Z</time>
      </trkpt>
      <trkpt lat="48.63921" lon="2.5076">
        <ele>144.98</ele>
        <time>2014-01-05T11:12:41Z</time>
      </trkpt>
      <trkpt lat="48.63944" lon="2.50766">
        <ele>134.9</ele>
        <time>2014-01-05T11:13:37Z</time>
      </trkpt>
      <trkpt lat="48.63956" lon="2.50796">
        <ele>137.28</ele>
        <time>2014-01-05T11:46:14Z</time>
      </trkpt>
      <trkpt lat="48.63948" lon="2.50828">
        <ele>135.13</ele>
        <time>2014-01-05T11:46:54Z</time>
      </trkpt>
      <trkpt lat="48.63934" lon="2.50855">
        <ele>137.46</ele>
        <time>2014-01-05T11:47:18Z</time>
      </trkpt>
      <trkpt lat="48.63928" lon="2.50888">
        <ele>135.39</ele>
        <time>2014-01-05T11:47:46Z</time>
      </trkpt>
      <trkpt lat="48.63911" lon="2.50913">
        <ele>138.65</ele>
        <time>2014-01-05T11:48:13Z</time>
      </trkpt>
      <trkpt lat="48.63921" lon="2.50944">
        <ele>136.66</ele>
        <time>2014-01-05T11:48:41Z</time>
      </trkpt>
      <trkpt lat="48.63903" lon="2.50966">
        <ele>134.34</ele>
        <time>2014-01-05T11:49:05Z</time>
      </trkpt>
      <trkpt lat="48.63881" lon="2.50982">
        <ele>131.07</ele>
        <time>2014-01-05T11:49:29Z</time>
      </trkpt>
      <trkpt lat="48.6387" lon="2.51012">
        <ele>130.62</ele>
        <time>2014-01-05T11:50:10Z</time>
      </trkpt>
      <trkpt lat="48.63852" lon="2.51033">
        <ele>139</ele>
        <time>2014-01-05T11:50:33Z</time>
      </trkpt>
      <trkpt lat="48.63836" lon="2.51058">
        <ele>139.99</ele>
        <time>2014-01-05T11:50:57Z</time>
      </trkpt>
      <trkpt lat="48.63826" lon="2.5109">
        <ele>140.25</ele>
        <time>2014-01-05T11:51:19Z</time>
      </trkpt>
      <trkpt lat="48.63823" lon="2.51124">
        <ele>135.73</ele>
        <time>2014-01-05T11:51:38Z</time>
      </trkpt>
      <trkpt lat="48.63826" lon="2.51158">
        <ele>130.62</ele>
        <time>2014-01-05T11:52:11Z</time>
      </trkpt>
      <trkpt lat="48.63815" lon="2.51189">
        <ele>133.23</ele>
        <time>2014-01-05T11:52:30Z</time>
      </trkpt>
      <trkpt lat="48.63804" lon="2.51219">
        <ele>135.18</ele>
        <time>2014-01-05T11:52:48Z</time>
      </trkpt>
      <trkpt lat="48.63795" lon="2.5125">
        <ele>137.09</ele>
        <time>2014-01-05T11:53:09Z</time>
      </trkpt>
      <trkpt lat="48.63784" lon="2.51281">
        <ele>136.53</ele>
        <time>2014-01-05T11:53:30Z</time>
      </trkpt>
      <trkpt lat="48.63776" lon="2.51313">
        <ele>135.52</ele>
        <time>2014-01-05T11:53:52Z</time>
      </trkpt>
      <trkpt lat="48.63764" lon="2.51342">
        <ele>137.27</ele>
        <time>2014-01-05T11:54:13Z</time>
      </trkpt>
      <trkpt lat="48.63755" lon="2.51375">
        <ele>139.32</ele>
        <time>2014-01-05T11:54:40Z</time>
      </trkpt>
      <trkpt lat="48.63746" lon="2.51407">
        <ele>141.84</ele>
        <time>2014-01-05T11:55:02Z</time>
      </trkpt>
      <trkpt lat="48.63736" lon="2.51439">
        <ele>144.34</ele>
        <time>2014-01-05T11:55:25Z</time>
      </trkpt>
      <trkpt lat="48.63728" lon="2.51472">
        <ele>145.42</ele>
        <time>2014-01-05T11:55:44Z</time>
      </trkpt>
      <trkpt lat="48.63719" lon="2.51504">
        <ele>146.24</ele>
        <time>2014-01-05T11:56:03Z</time>
      </trkpt>
      <trkpt lat="48.63711" lon="2.51536">
        <ele>145.66</ele>
        <time>2014-01-05T11:56:23Z</time>
      </trkpt>
      <trkpt lat="48.63703" lon="2.51568">
        <ele>145.23</ele>
        <time>2014-01-05T11:56:42Z</time>
      </trkpt>
      <trkpt lat="48.63693" lon="2.51599">
        <ele>147.39</ele>
        <time>2014-01-05T11:57:01Z</time>
      </trkpt>
      <trkpt lat="48.63683" lon="2.5163">
        <ele>149.37</ele>
        <time>2014-01-05T11:57:21Z</time>
      </trkpt>
      <trkpt lat="48.63673" lon="2.51662">
        <ele>150.96</ele>
        <time>2014-01-05T11:57:40Z</time>
      </trkpt>
      <trkpt lat="48.63664" lon="2.51695">
        <ele>150</ele>
        <time>2014-01-05T11:58:00Z</time>
      </trkpt>
      <trkpt lat="48.63657" lon="2.51729">
        <ele>148.47</ele>
        <time>2014-01-05T11:58:19Z</time>
      </trkpt>
      <trkpt lat="48.63647" lon="2.5176">
        <ele>149.79</ele>
        <time>2014-01-05T11:58:40Z</time>
      </trkpt>
      <trkpt lat="48.63637" lon="2.51792">
        <ele>151.37</ele>
        <time>2014-01-05T11:59:00Z</time>
      </trkpt>
      <trkpt lat="48.63628" lon="2.51824">
        <ele>151.31</ele>
        <time>2014-01-05T11:59:19Z</time>
      </trkpt>
      <trkpt lat="48.63619" lon="2.51857">
        <ele>151.89</ele>
        <time>2014-01-05T11:59:37Z</time>
      </trkpt>
      <trkpt lat="48.63611" lon="2.5189">
        <ele>151.68</ele>
        <time>2014-01-05T11:59:57Z</time>
      </trkpt>
      <trkpt lat="48.63601" lon="2.51922">
        <ele>151.9</ele>
        <time>2014-01-05T12:00:14Z</time>
      </trkpt>
      <trkpt lat="48.63592" lon="2.51954">
        <ele>152</ele>
        <time>2014-01-05T12:00:32Z</time>
      </trkpt>
      <trkpt lat="48.63583" lon="2.51986">
        <ele>152.4</ele>
        <time>2014-01-05T12:00:51Z</time>
      </trkpt>
      <trkpt lat="48.63575" lon="2.52019">
        <ele>152.45</ele>
        <time>2014-01-05T12:01:10Z</time>
      </trkpt>
      <trkpt lat="48.63565" lon="2.5205">
        <ele>153.38</ele>
        <time>2014-01-05T12:01:27Z</time>
      </trkpt>
      <trkpt lat="48.63557" lon="2.52082">
        <ele>153.98</ele>
        <time>2014-01-05T12:01:45Z</time>
      </trkpt>
      <trkpt lat="48.6355" lon="2.52115">
        <ele>146.64</ele>
        <time>2014-01-05T12:02:03Z</time>
      </trkpt>
      <trkpt lat="48.63542" lon="2.52147">
        <ele>139.59</ele>
        <time>2014-01-05T12:02:21Z</time>
      </trkpt>
      <trkpt lat="48.63534" lon="2.52179">
        <ele>134.7</ele>
        <time>2014-01-05T12:02:40Z</time>
      </trkpt>
      <trkpt lat="48.63525" lon="2.52211">
        <ele>130.52</ele>
        <time>2014-01-05T12:02:58Z</time>
      </trkpt>
      <trkpt lat="48.63517" lon="2.52243">
        <ele>127.91</ele>
        <time>2014-01-05T12:03:17Z</time>
      </trkpt>
      <trkpt lat="48.63508" lon="2.52276">
        <ele>126.96</ele>
        <time>2014-01-05T12:03:38Z</time>
      </trkpt>
      <trkpt lat="48.63499" lon="2.52308">
        <ele>126.23</ele>
        <time>2014-01-05T12:03:57Z</time>
      </trkpt>
      <trkpt lat="48.63489" lon="2.5234">
        <ele>126.27</ele>
        <time>2014-01-05T12:04:17Z</time>
      </trkpt>
      <trkpt lat="48.63481" lon="2.52373">
        <ele>126.11</ele>
        <time>2014-01-05T12:04:36Z</time>
      </trkpt>
      <trkpt lat="48.63471" lon="2.52403">
        <ele>126.17</ele>
        <time>2014-01-05T12:04:54Z</time>
      </trkpt>
      <trkpt lat="48.63461" lon="2.52435">
        <ele>125.9</ele>
        <time>2014-01-05T12:05:14Z</time>
      </trkpt>
      <trkpt lat="48.63448" lon="2.52464">
        <ele>126.22</ele>
        <time>2014-01-05T12:05:33Z</time>
      </trkpt>
      <trkpt lat="48.63436" lon="2.52493">
        <ele>125.9</ele>
        <time>2014-01-05T12:05:52Z</time>
      </trkpt>
      <trkpt lat="48.63423" lon="2.52522">
        <ele>125.2</ele>
        <time>2014-01-05T12:06:11Z</time>
      </trkpt>
      <trkpt lat="48.63411" lon="2.52551">
        <ele>125.6</ele>
        <time>2014-01-05T12:06:29Z</time>
      </trkpt>
      <trkpt lat="48.63399" lon="2.52581">
        <ele>126</ele>
        <time>2014-01-05T12:06:48Z</time>
      </trkpt>
      <trkpt lat="48.63386" lon="2.5261">
        <ele>125.43</ele>
        <time>2014-01-05T12:07:06Z</time>
      </trkpt>
      <trkpt lat="48.63374" lon="2.52639">
        <ele>125.67</ele>
        <time>2014-01-05T12:07:24Z</time>
      </trkpt>
      <trkpt lat="48.63363" lon="2.5267">
        <ele>125.11</ele>
        <time>2014-01-05T12:07:44Z</time>
      </trkpt>
      <trkpt lat="48.63357" lon="2.52704">
        <ele>124.9</ele>
        <time>2014-01-05T12:08:03Z</time>
      </trkpt>
      <trkpt lat="48.6336" lon="2.52738">
        <ele>124.85</ele>
        <time>2014-01-05T12:08:22Z</time>
      </trkpt>
      <trkpt lat="48.63342" lon="2.5276">
        <ele>123.47</ele>
        <time>2014-01-05T12:09:54Z</time>
      </trkpt>
      <trkpt lat="48.63319" lon="2.52764">
        <ele>124.49</ele>
        <time>2014-01-05T12:10:15Z</time>
      </trkpt>
      <trkpt lat="48.63295" lon="2.52765">
        <ele>125.3</ele>
        <time>2014-01-05T12:10:35Z</time>
      </trkpt>
      <trkpt lat="48.63273" lon="2.52766">
        <ele>126.46</ele>
        <time>2014-01-05T12:10:55Z</time>
      </trkpt>
      <trkpt lat="48.6325" lon="2.52769">
        <ele>126.93</ele>
        <time>2014-01-05T12:11:15Z</time>
      </trkpt>
      <trkpt lat="48.63227" lon="2.52772">
        <ele>128.92</ele>
        <time>2014-01-05T12:11:35Z</time>
      </trkpt>
      <trkpt lat="48.63204" lon="2.52774">
        <ele>129.32</ele>
        <time>2014-01-05T12:11:56Z</time>
      </trkpt>
      <trkpt lat="48.63181" lon="2.52776">
        <ele>130.15</ele>
        <time>2014-01-05T12:12:15Z</time>
      </trkpt>
      <trkpt lat="48.63158" lon="2.52783">
        <ele>130.3</ele>
        <time>2014-01-05T12:12:34Z</time>
      </trkpt>
      <trkpt lat="48.63134" lon="2.52785">
        <ele>130.68</ele>
        <time>2014-01-05T12:12:53Z</time>
      </trkpt>
      <trkpt lat="48.63111" lon="2.52785">
        <ele>129.93</ele>
        <time>2014-01-05T12:13:12Z</time>
      </trkpt>
      <trkpt lat="48.63087" lon="2.52787">
        <ele>129.12</ele>
        <time>2014-01-05T12:13:30Z</time>
      </trkpt>
      <trkpt lat="48.63064" lon="2.52787">
        <ele>128.48</ele>
        <time>2014-01-05T12:13:48Z</time>
      </trkpt>
      <trkpt lat="48.63041" lon="2.52789">
        <ele>127.92</ele>
        <time>2014-01-05T12:14:06Z</time>
      </trkpt>
      <trkpt lat="48.63018" lon="2.52784">
        <ele>127.04</ele>
        <time>2014-01-05T12:14:27Z</time>
      </trkpt>
      <trkpt lat="48.62996" lon="2.52785">
        <ele>126.58</ele>
        <time>2014-01-05T12:14:46Z</time>
      </trkpt>
      <trkpt lat="48.62974" lon="2.52772">
        <ele>126.02</ele>
        <time>2014-01-05T12:15:07Z</time>
      </trkpt>
      <trkpt lat="48.62951" lon="2.52776">
        <ele>125.41</ele>
        <time>2014-01-05T12:15:26Z</time>
      </trkpt>
      <trkpt lat="48.62928" lon="2.52778">
        <ele>125.49</ele>
        <time>2014-01-05T12:15:45Z</time>
      </trkpt>
      <trkpt lat="48.62905" lon="2.52785">
        <ele>125.43</ele>
        <time>2014-01-05T12:16:05Z</time>
      </trkpt>
      <trkpt lat="48.62882" lon="2.52782">
        <ele>125.93</ele>
        <time>2014-01-05T12:16:24Z</time>
      </trkpt>
      <trkpt lat="48.62858" lon="2.52784">
        <ele>126.2</ele>
        <time>2014-01-05T12:16:43Z</time>
      </trkpt>
      <trkpt lat="48.62835" lon="2.52787">
        <ele>125.68</ele>
        <time>2014-01-05T12:17:02Z</time>
      </trkpt>
      <trkpt lat="48.62811" lon="2.52789">
        <ele>126.73</ele>
        <time>2014-01-05T12:17:20Z</time>
      </trkpt>
      <trkpt lat="48.62788" lon="2.5279">
        <ele>127.32</ele>
        <time>2014-01-05T12:17:38Z</time>
      </trkpt>
      <trkpt lat="48.62765" lon="2.52792">
        <ele>126.83</ele>
        <time>2014-01-05T12:17:56Z</time>
      </trkpt>
      <trkpt lat="48.62741" lon="2.52792">
        <ele>126.8</ele>
        <time>2014-01-05T12:18:13Z</time>
      </trkpt>
      <trkpt lat="48.62719" lon="2.52797">
        <ele>126.29</ele>
        <time>2014-01-05T12:18:31Z</time>
      </trkpt>
      <trkpt lat="48.62696" lon="2.528">
        <ele>127.37</ele>
        <time>2014-01-05T12:18:52Z</time>
      </trkpt>
      <trkpt lat="48.62672" lon="2.52801">
        <ele>126.81</ele>
        <time>2014-01-05T12:19:10Z</time>
      </trkpt>
      <trkpt lat="48.62649" lon="2.52803">
        <ele>126.99</ele>
        <time>2014-01-05T12:19:29Z</time>
      </trkpt>
      <trkpt lat="48.62626" lon="2.52805">
        <ele>126.82</ele>
        <time>2014-01-05T12:19:45Z</time>
      </trkpt>
      <trkpt lat="48.62603" lon="2.52807">
        <ele>127.21</ele>
        <time>2014-01-05T12:20:02Z</time>
      </trkpt>
      <trkpt lat="48.6258" lon="2.52806">
        <ele>127.33</ele>
        <time>2014-01-05T12:20:19Z</time>
      </trkpt>
      <trkpt lat="48.62557" lon="2.52808">
        <ele>126.93</ele>
        <time>2014-01-05T12:20:37Z</time>
      </trkpt>
      <trkpt lat="48.62534" lon="2.5281">
        <ele>127.51</ele>
        <time>2014-01-05T12:20:55Z</time>
      </trkpt>
      <trkpt lat="48.6251" lon="2.52813">
        <ele>126.98</ele>
        <time>2014-01-05T12:21:14Z</time>
      </trkpt>
      <trkpt lat="48.62487" lon="2.52815">
        <ele>126.85</ele>
        <time>2014-01-05T12:21:32Z</time>
      </trkpt>
      <trkpt lat="48.62464" lon="2.52819">
        <ele>125.99</ele>
        <time>2014-01-05T12:21:51Z</time>
      </trkpt>
      <trkpt lat="48.6244" lon="2.5282">
        <ele>126.2</ele>
        <time>2014-01-05T12:22:10Z</time>
      </trkpt>
      <trkpt lat="48.62417" lon="2.52821">
        <ele>126.52</ele>
        <time>2014-01-05T12:22:29Z</time>
      </trkpt>
      <trkpt lat="48.62393" lon="2.52822">
        <ele>125.97</ele>
        <time>2014-01-05T12:22:49Z</time>
      </trkpt>
      <trkpt lat="48.62371" lon="2.5282">
        <ele>125.87</ele>
        <time>2014-01-05T12:23:10Z</time>
      </trkpt>
      <trkpt lat="48.62348" lon="2.52827">
        <ele>124.91</ele>
        <time>2014-01-05T12:23:31Z</time>
      </trkpt>
      <trkpt lat="48.62325" lon="2.52828">
        <ele>124.79</ele>
        <time>2014-01-05T12:23:52Z</time>
      </trkpt>
      <trkpt lat="48.62302" lon="2.52825">
        <ele>124.63</ele>
        <time>2014-01-05T12:24:12Z</time>
      </trkpt>
      <trkpt lat="48.62279" lon="2.52828">
        <ele>122.82</ele>
        <time>2014-01-05T12:25:20Z</time>
      </trkpt>
      <trkpt lat="48.62256" lon="2.52832">
        <ele>123.56</ele>
        <time>2014-01-05T12:25:38Z</time>
      </trkpt>
      <trkpt lat="48.62233" lon="2.52835">
        <ele>124.48</ele>
        <time>2014-01-05T12:25:58Z</time>
      </trkpt>
      <trkpt lat="48.62211" lon="2.52838">
        <ele>125.87</ele>
        <time>2014-01-05T12:26:16Z</time>
      </trkpt>
      <trkpt lat="48.62187" lon="2.52839">
        <ele>125.9</ele>
        <time>2014-01-05T12:26:35Z</time>
      </trkpt>
      <trkpt lat="48.62164" lon="2.52841">
        <ele>126.09</ele>
        <time>2014-01-05T12:26:54Z</time>
      </trkpt>
      <trkpt lat="48.62141" lon="2.52843">
        <ele>126.38</ele>
        <time>2014-01-05T12:27:12Z</time>
      </trkpt>
      <trkpt lat="48.62118" lon="2.52846">
        <ele>125.53</ele>
        <time>2014-01-05T12:27:35Z</time>
      </trkpt>
      <trkpt lat="48.62095" lon="2.52848">
        <ele>125.1</ele>
        <time>2014-01-05T12:27:54Z</time>
      </trkpt>
      <trkpt lat="48.62072" lon="2.52849">
        <ele>124.73</ele>
        <time>2014-01-05T12:28:12Z</time>
      </trkpt>
      <trkpt lat="48.6205" lon="2.52852">
        <ele>125.42</ele>
        <time>2014-01-05T12:28:30Z</time>
      </trkpt>
      <trkpt lat="48.62027" lon="2.52852">
        <ele>124.57</ele>
        <time>2014-01-05T12:28:48Z</time>
      </trkpt>
      <trkpt lat="48.62004" lon="2.52858">
        <ele>123.78</ele>
        <time>2014-01-05T12:29:08Z</time>
      </trkpt>
      <trkpt lat="48.6198" lon="2.52856">
        <ele>123.61</ele>
        <time>2014-01-05T12:29:29Z</time>
      </trkpt>
      <trkpt lat="48.61957" lon="2.5286">
        <ele>123.51</ele>
        <time>2014-01-05T12:29:50Z</time>
      </trkpt>
      <trkpt lat="48.61934" lon="2.52864">
        <ele>122.56</ele>
        <time>2014-01-05T12:30:10Z</time>
      </trkpt>
      <trkpt lat="48.61911" lon="2.52863">
        <ele>123.68</ele>
        <time>2014-01-05T12:30:29Z</time>
      </trkpt>
      <trkpt lat="48.61887" lon="2.52864">
        <ele>123.42</ele>
        <time>2014-01-05T12:32:40Z</time>
      </trkpt>
      <trkpt lat="48.61864" lon="2.52867">
        <ele>122.78</ele>
        <time>2014-01-05T12:33:01Z</time>
      </trkpt>
      <trkpt lat="48.61841" lon="2.52868">
        <ele>122.67</ele>
        <time>2014-01-05T12:33:20Z</time>
      </trkpt>
      <trkpt lat="48.61818" lon="2.52869">
        <ele>123</ele>
        <time>2014-01-05T12:33:39Z</time>
      </trkpt>
      <trkpt lat="48.61795" lon="2.52872">
        <ele>122.09</ele>
        <time>2014-01-05T12:33:59Z</time>
      </trkpt>
      <trkpt lat="48.61773" lon="2.52874">
        <ele>122.8</ele>
        <time>2014-01-05T12:34:17Z</time>
      </trkpt>
      <trkpt lat="48.61749" lon="2.52876">
        <ele>123.97</ele>
        <time>2014-01-05T12:34:36Z</time>
      </trkpt>
      <trkpt lat="48.61726" lon="2.52877">
        <ele>124.48</ele>
        <time>2014-01-05T12:34:53Z</time>
      </trkpt>
      <trkpt lat="48.61703" lon="2.5288">
        <ele>125.13</ele>
        <time>2014-01-05T12:35:12Z</time>
      </trkpt>
      <trkpt lat="48.6168" lon="2.52881">
        <ele>124.33</ele>
        <time>2014-01-05T12:35:31Z</time>
      </trkpt>
      <trkpt lat="48.61657" lon="2.52882">
        <ele>124.1</ele>
        <time>2014-01-05T12:35:50Z</time>
      </trkpt>
      <trkpt lat="48.61635" lon="2.52882">
        <ele>125.27</ele>
        <time>2014-01-05T12:36:09Z</time>
      </trkpt>
      <trkpt lat="48.61611" lon="2.52884">
        <ele>124.87</ele>
        <time>2014-01-05T12:36:26Z</time>
      </trkpt>
      <trkpt lat="48.61588" lon="2.52887">
        <ele>124.89</ele>
        <time>2014-01-05T12:36:45Z</time>
      </trkpt>
      <trkpt lat="48.61566" lon="2.52888">
        <ele>124.6</ele>
        <time>2014-01-05T12:37:03Z</time>
      </trkpt>
      <trkpt lat="48.61543" lon="2.52893">
        <ele>125.21</ele>
        <time>2014-01-05T12:37:20Z</time>
      </trkpt>
      <trkpt lat="48.6152" lon="2.52893">
        <ele>124.68</ele>
        <time>2014-01-05T12:37:39Z</time>
      </trkpt>
      <trkpt lat="48.61497" lon="2.52897">
        <ele>124.93</ele>
        <time>2014-01-05T12:37:58Z</time>
      </trkpt>
      <trkpt lat="48.61474" lon="2.529">
        <ele>126.41</ele>
        <time>2014-01-05T12:38:16Z</time>
      </trkpt>
      <trkpt lat="48.61451" lon="2.52901">
        <ele>125.68</ele>
        <time>2014-01-05T12:38:35Z</time>
      </trkpt>
      <trkpt lat="48.61428" lon="2.52906">
        <ele>126.27</ele>
        <time>2014-01-05T12:38:55Z</time>
      </trkpt>
      <trkpt lat="48.61405" lon="2.52907">
        <ele>126.8</ele>
        <time>2014-01-05T12:39:14Z</time>
      </trkpt>
      <trkpt lat="48.61382" lon="2.52909">
        <ele>127.13</ele>
        <time>2014-01-05T12:39:32Z</time>
      </trkpt>
      <trkpt lat="48.61358" lon="2.52911">
        <ele>127.3</ele>
        <time>2014-01-05T12:39:52Z</time>
      </trkpt>
      <trkpt lat="48.61336" lon="2.52912">
        <ele>127.01</ele>
        <time>2014-01-05T12:40:10Z</time>
      </trkpt>
      <trkpt lat="48.61313" lon="2.52913">
        <ele>127.37</ele>
        <time>2014-01-05T12:40:33Z</time>
      </trkpt>
      <trkpt lat="48.6129" lon="2.52914">
        <ele>126.69</ele>
        <time>2014-01-05T12:40:58Z</time>
      </trkpt>
      <trkpt lat="48.61268" lon="2.52915">
        <ele>126.31</ele>
        <time>2014-01-05T12:41:24Z</time>
      </trkpt>
      <trkpt lat="48.61244" lon="2.52919">
        <ele>126.67</ele>
        <time>2014-01-05T12:41:44Z</time>
      </trkpt>
      <trkpt lat="48.61221" lon="2.52921">
        <ele>127</ele>
        <time>2014-01-05T12:42:06Z</time>
      </trkpt>
      <trkpt lat="48.61197" lon="2.52925">
        <ele>126.11</ele>
        <time>2014-01-05T12:42:25Z</time>
      </trkpt>
      <trkpt lat="48.61174" lon="2.52925">
        <ele>125</ele>
        <time>2014-01-05T12:42:43Z</time>
      </trkpt>
      <trkpt lat="48.61151" lon="2.52927">
        <ele>125.2</ele>
        <time>2014-01-05T12:43:01Z</time>
      </trkpt>
      <trkpt lat="48.61129" lon="2.5293">
        <ele>125.99</ele>
        <time>2014-01-05T12:43:19Z</time>
      </trkpt>
      <trkpt lat="48.61105" lon="2.52932">
        <ele>126.33</ele>
        <time>2014-01-05T12:43:44Z</time>
      </trkpt>
      <trkpt lat="48.61083" lon="2.52933">
        <ele>125.89</ele>
        <time>2014-01-05T12:44:03Z</time>
      </trkpt>
      <trkpt lat="48.6106" lon="2.52939">
        <ele>126.84</ele>
        <time>2014-01-05T12:44:24Z</time>
      </trkpt>
      <trkpt lat="48.61036" lon="2.52939">
        <ele>127.39</ele>
        <time>2014-01-05T12:44:44Z</time>
      </trkpt>
      <trkpt lat="48.61012" lon="2.52937">
        <ele>127.77</ele>
        <time>2014-01-05T12:45:03Z</time>
      </trkpt>
      <trkpt lat="48.60989" lon="2.5294">
        <ele>128.16</ele>
        <time>2014-01-05T12:45:22Z</time>
      </trkpt>
      <trkpt lat="48.60967" lon="2.52943">
        <ele>127.4</ele>
        <time>2014-01-05T12:45:41Z</time>
      </trkpt>
      <trkpt lat="48.60944" lon="2.52945">
        <ele>127.89</ele>
        <time>2014-01-05T12:46:00Z</time>
      </trkpt>
      <trkpt lat="48.60921" lon="2.52947">
        <ele>127.27</ele>
        <time>2014-01-05T12:46:19Z</time>
      </trkpt>
      <trkpt lat="48.60898" lon="2.52948">
        <ele>127.58</ele>
        <time>2014-01-05T12:46:39Z</time>
      </trkpt>
      <trkpt lat="48.60874" lon="2.5295">
        <ele>127.88</ele>
        <time>2014-01-05T12:46:58Z</time>
      </trkpt>
      <trkpt lat="48.60852" lon="2.52952">
        <ele>127.76</ele>
        <time>2014-01-05T12:47:17Z</time>
      </trkpt>
      <trkpt lat="48.60829" lon="2.52955">
        <ele>127.86</ele>
        <time>2014-01-05T12:47:37Z</time>
      </trkpt>
      <trkpt lat="48.60806" lon="2.52956">
        <ele>128.19</ele>
        <time>2014-01-05T12:47:56Z</time>
      </trkpt>
      <trkpt lat="48.60783" lon="2.52957">
        <ele>128.3</ele>
        <time>2014-01-05T12:48:16Z</time>
      </trkpt>
      <trkpt lat="48.6076" lon="2.52959">
        <ele>128.68</ele>
        <time>2014-01-05T12:48:36Z</time>
      </trkpt>
      <trkpt lat="48.60737" lon="2.52961">
        <ele>128.42</ele>
        <time>2014-01-05T12:48:56Z</time>
      </trkpt>
      <trkpt lat="48.60713" lon="2.52962">
        <ele>128.29</ele>
        <time>2014-01-05T12:49:16Z</time>
      </trkpt>
      <trkpt lat="48.6069" lon="2.52964">
        <ele>127.71</ele>
        <time>2014-01-05T12:49:35Z</time>
      </trkpt>
      <trkpt lat="48.60667" lon="2.52965">
        <ele>127.53</ele>
        <time>2014-01-05T12:49:54Z</time>
      </trkpt>
      <trkpt lat="48.60643" lon="2.52967">
        <ele>128.6</ele>
        <time>2014-01-05T12:50:14Z</time>
      </trkpt>
      <trkpt lat="48.60621" lon="2.52969">
        <ele>129.8</ele>
        <time>2014-01-05T12:50:32Z</time>
      </trkpt>
      <trkpt lat="48.60597" lon="2.52972">
        <ele>129.6</ele>
        <time>2014-01-05T12:50:51Z</time>
      </trkpt>
      <trkpt lat="48.60574" lon="2.52972">
        <ele>128.07</ele>
        <time>2014-01-05T12:51:10Z</time>
      </trkpt>
      <trkpt lat="48.60551" lon="2.52976">
        <ele>127.78</ele>
        <time>2014-01-05T12:51:29Z</time>
      </trkpt>
      <trkpt lat="48.60528" lon="2.52978">
        <ele>128.1</ele>
        <time>2014-01-05T12:51:48Z</time>
      </trkpt>
      <trkpt lat="48.60505" lon="2.52979">
        <ele>128.57</ele>
        <time>2014-01-05T12:52:06Z</time>
      </trkpt>
      <trkpt lat="48.60482" lon="2.52981">
        <ele>129.22</ele>
        <time>2014-01-05T12:52:25Z</time>
      </trkpt>
      <trkpt lat="48.60459" lon="2.52982">
        <ele>128.59</ele>
        <time>2014-01-05T12:52:44Z</time>
      </trkpt>
      <trkpt lat="48.60435" lon="2.52985">
        <ele>128.2</ele>
        <time>2014-01-05T12:53:03Z</time>
      </trkpt>
      <trkpt lat="48.60412" lon="2.52986">
        <ele>128.02</ele>
        <time>2014-01-05T12:53:21Z</time>
      </trkpt>
      <trkpt lat="48.60389" lon="2.52987">
        <ele>128.17</ele>
        <time>2014-01-05T12:53:39Z</time>
      </trkpt>
      <trkpt lat="48.60365" lon="2.52989">
        <ele>128.41</ele>
        <time>2014-01-05T12:53:58Z</time>
      </trkpt>
      <trkpt lat="48.60342" lon="2.52991">
        <ele>127.54</ele>
        <time>2014-01-05T12:54:15Z</time>
      </trkpt>
      <trkpt lat="48.60318" lon="2.5299">
        <ele>127.17</ele>
        <time>2014-01-05T12:54:32Z</time>
      </trkpt>
      <trkpt lat="48.60295" lon="2.52992">
        <ele>127.26</ele>
        <time>2014-01-05T12:54:50Z</time>
      </trkpt>
      <trkpt lat="48.60273" lon="2.52995">
        <ele>125.46</ele>
        <time>2014-01-05T12:55:06Z</time>
      </trkpt>
      <trkpt lat="48.60249" lon="2.52994">
        <ele>125.41</ele>
        <time>2014-01-05T12:55:25Z</time>
      </trkpt>
      <trkpt lat="48.60226" lon="2.52996">
        <ele>125.6</ele>
        <time>2014-01-05T12:55:42Z</time>
      </trkpt>
      <trkpt lat="48.60202" lon="2.52999">
        <ele>126.4</ele>
        <time>2014-01-05T12:56:00Z</time>
      </trkpt>
      <trkpt lat="48.6018" lon="2.53008">
        <ele>127.31</ele>
        <time>2014-01-05T12:57:20Z</time>
      </trkpt>
      <trkpt lat="48.60157" lon="2.53007">
        <ele>128.11</ele>
        <time>2014-01-05T12:57:46Z</time>
      </trkpt>
      <trkpt lat="48.60135" lon="2.53008">
        <ele>126.8</ele>
        <time>2014-01-05T12:59:13Z</time>
      </trkpt>
      <trkpt lat="48.60112" lon="2.53009">
        <ele>127.41</ele>
        <time>2014-01-05T12:59:39Z</time>
      </trkpt>
      <trkpt lat="48.60088" lon="2.53013">
        <ele>127.04</ele>
        <time>2014-01-05T13:01:18Z</time>
      </trkpt>
      <trkpt lat="48.60065" lon="2.53011">
        <ele>126.47</ele>
        <time>2014-01-05T13:01:44Z</time>
      </trkpt>
      <trkpt lat="48.60043" lon="2.53014">
        <ele>126.69</ele>
        <time>2014-01-05T13:02:02Z</time>
      </trkpt>
      <trkpt lat="48.6002" lon="2.53018">
        <ele>127.66</ele>
        <time>2014-01-05T13:02:21Z</time>
      </trkpt>
      <trkpt lat="48.59997" lon="2.53019">
        <ele>128.01</ele>
        <time>2014-01-05T13:02:42Z</time>
      </trkpt>
      <trkpt lat="48.59974" lon="2.53019">
        <ele>127.79</ele>
        <time>2014-01-05T13:03:00Z</time>
      </trkpt>
      <trkpt lat="48.59952" lon="2.53025">
        <ele>128.06</ele>
        <time>2014-01-05T13:03:17Z</time>
      </trkpt>
      <trkpt lat="48.59929" lon="2.53025">
        <ele>127.96</ele>
        <time>2014-01-05T13:03:37Z</time>
      </trkpt>
      <trkpt lat="48.59906" lon="2.53024">
        <ele>127.43</ele>
        <time>2014-01-05T13:03:54Z</time>
      </trkpt>
      <trkpt lat="48.59883" lon="2.53027">
        <ele>127.09</ele>
        <time>2014-01-05T13:04:12Z</time>
      </trkpt>
      <trkpt lat="48.5986" lon="2.53031">
        <ele>127.01</ele>
        <time>2014-01-05T13:04:33Z</time>
      </trkpt>
      <trkpt lat="48.59837" lon="2.53036">
        <ele>126.09</ele>
        <time>2014-01-05T13:04:52Z</time>
      </trkpt>
      <trkpt lat="48.59814" lon="2.53039">
        <ele>126.15</ele>
        <time>2014-01-05T13:05:11Z</time>
      </trkpt>
      <trkpt lat="48.59791" lon="2.53041">
        <ele>126.12</ele>
        <time>2014-01-05T13:05:30Z</time>
      </trkpt>
      <trkpt lat="48.59768" lon="2.53041">
        <ele>126.52</ele>
        <time>2014-01-05T13:05:48Z</time>
      </trkpt>
      <trkpt lat="48.59746" lon="2.53045">
        <ele>126.9</ele>
        <time>2014-01-05T13:06:07Z</time>
      </trkpt>
      <trkpt lat="48.59723" lon="2.53046">
        <ele>126.97</ele>
        <time>2014-01-05T13:06:24Z</time>
      </trkpt>
      <trkpt lat="48.59699" lon="2.5305">
        <ele>126.6</ele>
        <time>2014-01-05T13:06:43Z</time>
      </trkpt>
      <trkpt lat="48.59677" lon="2.53048">
        <ele>127.1</ele>
        <time>2014-01-05T13:07:02Z</time>
      </trkpt>
      <trkpt lat="48.59654" lon="2.53052">
        <ele>126.71</ele>
        <time>2014-01-05T13:07:23Z</time>
      </trkpt>
      <trkpt lat="48.59631" lon="2.53058">
        <ele>127.57</ele>
        <time>2014-01-05T13:07:41Z</time>
      </trkpt>
      <trkpt lat="48.59608" lon="2.53062">
        <ele>128.57</ele>
        <time>2014-01-05T13:08:00Z</time>
      </trkpt>
      <trkpt lat="48.59585" lon="2.53062">
        <ele>128.34</ele>
        <time>2014-01-05T13:08:16Z</time>
      </trkpt>
      <trkpt lat="48.59562" lon="2.53064">
        <ele>128.28</ele>
        <time>2014-01-05T13:08:34Z</time>
      </trkpt>
      <trkpt lat="48.5954" lon="2.53069">
        <ele>127.35</ele>
        <time>2014-01-05T13:08:54Z</time>
      </trkpt>
      <trkpt lat="48.59517" lon="2.53068">
        <ele>128.37</ele>
        <time>2014-01-05T13:09:10Z</time>
      </trkpt>
      <trkpt lat="48.59494" lon="2.53067">
        <ele>126.38</ele>
        <time>2014-01-05T13:09:27Z</time>
      </trkpt>
      <trkpt lat="48.59471" lon="2.53069">
        <ele>127.34</ele>
        <time>2014-01-05T13:09:46Z</time>
      </trkpt>
      <trkpt lat="48.59447" lon="2.5307">
        <ele>129.57</ele>
        <time>2014-01-05T13:10:07Z</time>
      </trkpt>
      <trkpt lat="48.59424" lon="2.53072">
        <ele>130.11</ele>
        <time>2014-01-05T13:10:27Z</time>
      </trkpt>
      <trkpt lat="48.59401" lon="2.53072">
        <ele>128.05</ele>
        <time>2014-01-05T13:10:40Z</time>
      </trkpt>
      <trkpt lat="48.59379" lon="2.53075">
        <ele>128.26</ele>
        <time>2014-01-05T13:10:58Z</time>
      </trkpt>
      <trkpt lat="48.59361" lon="2.53096">
        <ele>126.53</ele>
        <time>2014-01-05T13:12:07Z</time>
      </trkpt>
      <trkpt lat="48.5934" lon="2.53113">
        <ele>125.46</ele>
        <time>2014-01-05T13:12:58Z</time>
      </trkpt>
      <trkpt lat="48.5932" lon="2.53128">
        <ele>125.14</ele>
        <time>2014-01-05T13:13:15Z</time>
      </trkpt>
      <trkpt lat="48.593" lon="2.53145">
        <ele>126.5</ele>
        <time>2014-01-05T13:13:39Z</time>
      </trkpt>
      <trkpt lat="48.59278" lon="2.53156">
        <ele>127.37</ele>
        <time>2014-01-05T13:13:57Z</time>
      </trkpt>
      <trkpt lat="48.59258" lon="2.53173">
        <ele>127.13</ele>
        <time>2014-01-05T13:14:16Z</time>
      </trkpt>
      <trkpt lat="48.59239" lon="2.53193">
        <ele>127.08</ele>
        <time>2014-01-05T13:14:36Z</time>
      </trkpt>
      <trkpt lat="48.59219" lon="2.53212">
        <ele>126.8</ele>
        <time>2014-01-05T13:14:55Z</time>
      </trkpt>
      <trkpt lat="48.59199" lon="2.53228">
        <ele>127.65</ele>
        <time>2014-01-05T13:15:16Z</time>
      </trkpt>
      <trkpt lat="48.5918" lon="2.53249">
        <ele>127.68</ele>
        <time>2014-01-05T13:15:35Z</time>
      </trkpt>
      <trkpt lat="48.59159" lon="2.53265">
        <ele>127.02</ele>
        <time>2014-01-05T13:15:54Z</time>
      </trkpt>
      <trkpt lat="48.5914" lon="2.53284">
        <ele>127</ele>
        <time>2014-01-05T13:16:15Z</time>
      </trkpt>
      <trkpt lat="48.59118" lon="2.53297">
        <ele>128.03</ele>
        <time>2014-01-05T13:16:32Z</time>
      </trkpt>
      <trkpt lat="48.59099" lon="2.53319">
        <ele>127.28</ele>
        <time>2014-01-05T13:16:53Z</time>
      </trkpt>
      <trkpt lat="48.59078" lon="2.53336">
        <ele>128.14</ele>
        <time>2014-01-05T13:17:12Z</time>
      </trkpt>
      <trkpt lat="48.59058" lon="2.53353">
        <ele>128.05</ele>
        <time>2014-01-05T13:17:29Z</time>
      </trkpt>
      <trkpt lat="48.59039" lon="2.53373">
        <ele>128.91</ele>
        <time>2014-01-05T13:17:48Z</time>
      </trkpt>
      <trkpt lat="48.59019" lon="2.53387">
        <ele>129.68</ele>
        <time>2014-01-05T13:18:08Z</time>
      </trkpt>
      <trkpt lat="48.58998" lon="2.53403">
        <ele>129.12</ele>
        <time>2014-01-05T13:18:28Z</time>
      </trkpt>
      <trkpt lat="48.58979" lon="2.53422">
        <ele>129.93</ele>
        <time>2014-01-05T13:18:45Z</time>
      </trkpt>
      <trkpt lat="48.58959" lon="2.53439">
        <ele>129.31</ele>
        <time>2014-01-05T13:19:05Z</time>
      </trkpt>
      <trkpt lat="48.58937" lon="2.53453">
        <ele>128.67</ele>
        <time>2014-01-05T13:19:24Z</time>
      </trkpt>
      <trkpt lat="48.58919" lon="2.53475">
        <ele>126.7</ele>
        <time>2014-01-05T13:19:54Z</time>
      </trkpt>
      <trkpt lat="48.58902" lon="2.53498">
        <ele>129.26</ele>
        <time>2014-01-05T13:21:32Z</time>
      </trkpt>
      <trkpt lat="48.58881" lon="2.5351">
        <ele>126.53</ele>
        <time>2014-01-05T13:21:55Z</time>
      </trkpt>
      <trkpt lat="48.5886" lon="2.53526">
        <ele>126.64</ele>
        <time>2014-01-05T13:22:16Z</time>
      </trkpt>
      <trkpt lat="48.5884" lon="2.53542">
        <ele>126.48</ele>
        <time>2014-01-05T13:22:34Z</time>
      </trkpt>
      <trkpt lat="48.58819" lon="2.53551">
        <ele>128.12</ele>
        <time>2014-01-05T13:22:49Z</time>
      </trkpt>
      <trkpt lat="48.58799" lon="2.53569">
        <ele>128.32</ele>
        <time>2014-01-05T13:23:08Z</time>
      </trkpt>
      <trkpt lat="48.58779" lon="2.53588">
        <ele>128.02</ele>
        <time>2014-01-05T13:23:27Z</time>
      </trkpt>
      <trkpt lat="48.58759" lon="2.53603">
        <ele>129.54</ele>
        <time>2014-01-05T13:23:46Z</time>
      </trkpt>
      <trkpt lat="48.58739" lon="2.53622">
        <ele>129.08</ele>
        <time>2014-01-05T13:24:03Z</time>
      </trkpt>
      <trkpt lat="48.58722" lon="2.53648">
        <ele>128.99</ele>
        <time>2014-01-05T13:24:22Z</time>
      </trkpt>
      <trkpt lat="48.58701" lon="2.53663">
        <ele>128.89</ele>
        <time>2014-01-05T13:24:38Z</time>
      </trkpt>
      <trkpt lat="48.58683" lon="2.53682">
        <ele>127.59</ele>
        <time>2014-01-05T13:24:59Z</time>
      </trkpt>
      <trkpt lat="48.58662" lon="2.53698">
        <ele>126.85</ele>
        <time>2014-01-05T13:25:17Z</time>
      </trkpt>
      <trkpt lat="48.58642" lon="2.53716">
        <ele>126.91</ele>
        <time>2014-01-05T13:25:36Z</time>
      </trkpt>
      <trkpt lat="48.58622" lon="2.5373">
        <ele>126.45</ele>
        <time>2014-01-05T13:25:53Z</time>
      </trkpt>
      <trkpt lat="48.586" lon="2.53748">
        <ele>125.84</ele>
        <time>2014-01-05T13:26:13Z</time>
      </trkpt>
      <trkpt lat="48.5858" lon="2.53767">
        <ele>122.56</ele>
        <time>2014-01-05T13:26:30Z</time>
      </trkpt>
      <trkpt lat="48.5856" lon="2.53784">
        <ele>122.99</ele>
        <time>2014-01-05T13:26:49Z</time>
      </trkpt>
      <trkpt lat="48.58541" lon="2.53804">
        <ele>124.77</ele>
        <time>2014-01-05T13:27:11Z</time>
      </trkpt>
      <trkpt lat="48.58521" lon="2.53821">
        <ele>126.11</ele>
        <time>2014-01-05T13:27:33Z</time>
      </trkpt>
      <trkpt lat="48.585" lon="2.53833">
        <ele>126.27</ele>
        <time>2014-01-05T13:27:53Z</time>
      </trkpt>
      <trkpt lat="48.58481" lon="2.53856">
        <ele>125.73</ele>
        <time>2014-01-05T13:28:14Z</time>
      </trkpt>
      <trkpt lat="48.5846" lon="2.53871">
        <ele>124.17</ele>
        <time>2014-01-05T13:28:29Z</time>
      </trkpt>
      <trkpt lat="48.58442" lon="2.53891">
        <ele>124.69</ele>
        <time>2014-01-05T13:28:48Z</time>
      </trkpt>
      <trkpt lat="48.58424" lon="2.53913">
        <ele>125.48</ele>
        <time>2014-01-05T13:29:11Z</time>
      </trkpt>
      <trkpt lat="48.58404" lon="2.53931">
        <ele>129.47</ele>
        <time>2014-01-05T13:29:30Z</time>
      </trkpt>
      <trkpt lat="48.58385" lon="2.53951">
        <ele>132.37</ele>
        <time>2014-01-05T13:29:49Z</time>
      </trkpt>
      <trkpt lat="48.58366" lon="2.53969">
        <ele>134.49</ele>
        <time>2014-01-05T13:30:09Z</time>
      </trkpt>
      <trkpt lat="48.58343" lon="2.53981">
        <ele>135.81</ele>
        <time>2014-01-05T13:30:31Z</time>
      </trkpt>
      <trkpt lat="48.58322" lon="2.53993">
        <ele>135.44</ele>
        <time>2014-01-05T13:30:44Z</time>
      </trkpt>
      <trkpt lat="48.58301" lon="2.54009">
        <ele>134.16</ele>
        <time>2014-01-05T13:31:00Z</time>
      </trkpt>
      <trkpt lat="48.58282" lon="2.54029">
        <ele>131.8</ele>
        <time>2014-01-05T13:31:20Z</time>
      </trkpt>
      <trkpt lat="48.5826" lon="2.54044">
        <ele>129.15</ele>
        <time>2014-01-05T13:31:35Z</time>
      </trkpt>
      <trkpt lat="48.58241" lon="2.54063">
        <ele>127.96</ele>
        <time>2014-01-05T13:31:54Z</time>
      </trkpt>
      <trkpt lat="48.58221" lon="2.5408">
        <ele>129.58</ele>
        <time>2014-01-05T13:32:14Z</time>
      </trkpt>
      <trkpt lat="48.58203" lon="2.54101">
        <ele>129.23</ele>
        <time>2014-01-05T13:32:30Z</time>
      </trkpt>
      <trkpt lat="48.58182" lon="2.54114">
        <ele>129.26</ele>
        <time>2014-01-05T13:32:47Z</time>
      </trkpt>
      <trkpt lat="48.58161" lon="2.5413">
        <ele>129.91</ele>
        <time>2014-01-05T13:33:05Z</time>
      </trkpt>
      <trkpt lat="48.58142" lon="2.54148">
        <ele>130.87</ele>
        <time>2014-01-05T13:33:27Z</time>
      </trkpt>
      <trkpt lat="48.58125" lon="2.54171">
        <ele>130.24</ele>
        <time>2014-01-05T13:33:48Z</time>
      </trkpt>
      <trkpt lat="48.58104" lon="2.54186">
        <ele>129.87</ele>
        <time>2014-01-05T13:34:07Z</time>
      </trkpt>
      <trkpt lat="48.58084" lon="2.54203">
        <ele>128.21</ele>
        <time>2014-01-05T13:34:25Z</time>
      </trkpt>
      <trkpt lat="48.58063" lon="2.54216">
        <ele>126.82</ele>
        <time>2014-01-05T13:34:41Z</time>
      </trkpt>
      <trkpt lat="48.58044" lon="2.54237">
        <ele>127.28</ele>
        <time>2014-01-05T13:34:59Z</time>
      </trkpt>
      <trkpt lat="48.58024" lon="2.54254">
        <ele>126.96</ele>
        <time>2014-01-05T13:35:14Z</time>
      </trkpt>
      <trkpt lat="48.58004" lon="2.5427">
        <ele>125.93</ele>
        <time>2014-01-05T13:35:32Z</time>
      </trkpt>
      <trkpt lat="48.57984" lon="2.54287">
        <ele>127.63</ele>
        <time>2014-01-05T13:35:49Z</time>
      </trkpt>
      <trkpt lat="48.57963" lon="2.54303">
        <ele>127.05</ele>
        <time>2014-01-05T13:36:07Z</time>
      </trkpt>
      <trkpt lat="48.57946" lon="2.54326">
        <ele>127.19</ele>
        <time>2014-01-05T13:36:27Z</time>
      </trkpt>
      <trkpt lat="48.57926" lon="2.54344">
        <ele>128.85</ele>
        <time>2014-01-05T13:40:30Z</time>
      </trkpt>
      <trkpt lat="48.57905" lon="2.5436">
        <ele>127.98</ele>
        <time>2014-01-05T13:40:55Z</time>
      </trkpt>
      <trkpt lat="48.57885" lon="2.54377">
        <ele>129.18</ele>
        <time>2014-01-05T13:41:15Z</time>
      </trkpt>
      <trkpt lat="48.57867" lon="2.54398">
        <ele>129.37</ele>
        <time>2014-01-05T13:41:35Z</time>
      </trkpt>
      <trkpt lat="48.57844" lon="2.54411">
        <ele>127.59</ele>
        <time>2014-01-05T13:41:53Z</time>
      </trkpt>
      <trkpt lat="48.57825" lon="2.54431">
        <ele>126.11</ele>
        <time>2014-01-05T13:42:10Z</time>
      </trkpt>
      <trkpt lat="48.57806" lon="2.54451">
        <ele>124.91</ele>
        <time>2014-01-05T13:42:31Z</time>
      </trkpt>
      <trkpt lat="48.57787" lon="2.54472">
        <ele>126.64</ele>
        <time>2014-01-05T13:42:53Z</time>
      </trkpt>
      <trkpt lat="48.57765" lon="2.54486">
        <ele>128.24</ele>
        <time>2014-01-05T13:43:11Z</time>
      </trkpt>
      <trkpt lat="48.57743" lon="2.54504">
        <ele>129.83</ele>
        <time>2014-01-05T13:43:27Z</time>
      </trkpt>
      <trkpt lat="48.57724" lon="2.54524">
        <ele>131.48</ele>
        <time>2014-01-05T13:43:46Z</time>
      </trkpt>
      <trkpt lat="48.57704" lon="2.5454">
        <ele>131.01</ele>
        <time>2014-01-05T13:44:08Z</time>
      </trkpt>
      <trkpt lat="48.57684" lon="2.54558">
        <ele>130.3</ele>
        <time>2014-01-05T13:44:23Z</time>
      </trkpt>
      <trkpt lat="48.57663" lon="2.54569">
        <ele>130.32</ele>
        <time>2014-01-05T13:44:34Z</time>
      </trkpt>
      <trkpt lat="48.57643" lon="2.54587">
        <ele>130.08</ele>
        <time>2014-01-05T13:44:54Z</time>
      </trkpt>
      <trkpt lat="48.57624" lon="2.54607">
        <ele>128.72</ele>
        <time>2014-01-05T13:45:12Z</time>
      </trkpt>
      <trkpt lat="48.57608" lon="2.54631">
        <ele>128.64</ele>
        <time>2014-01-05T13:45:35Z</time>
      </trkpt>
      <trkpt lat="48.57588" lon="2.54648">
        <ele>126.84</ele>
        <time>2014-01-05T13:45:51Z</time>
      </trkpt>
      <trkpt lat="48.57569" lon="2.54668">
        <ele>130.33</ele>
        <time>2014-01-05T13:46:10Z</time>
      </trkpt>
      <trkpt lat="48.57547" lon="2.54677">
        <ele>132.19</ele>
        <time>2014-01-05T13:46:34Z</time>
      </trkpt>
      <trkpt lat="48.57529" lon="2.54657">
        <ele>132.11</ele>
        <time>2014-01-05T13:47:11Z</time>
      </trkpt>
      <trkpt lat="48.57517" lon="2.54627">
        <ele>130.31</ele>
        <time>2014-01-05T13:47:31Z</time>
      </trkpt>
      <trkpt lat="48.57503" lon="2.54597">
        <ele>128.26</ele>
        <time>2014-01-05T13:47:50Z</time>
      </trkpt>
      <trkpt lat="48.57491" lon="2.54567">
        <ele>128.53</ele>
        <time>2014-01-05T13:48:09Z</time>
      </trkpt>
      <trkpt lat="48.57475" lon="2.54541">
        <ele>128.23</ele>
        <time>2014-01-05T13:48:25Z</time>
      </trkpt>
      <trkpt lat="48.57467" lon="2.54509">
        <ele>131.4</ele>
        <time>2014-01-05T13:48:45Z</time>
      </trkpt>
      <trkpt lat="48.57447" lon="2.54485">
        <ele>131.89</ele>
        <time>2014-01-05T13:49:06Z</time>
      </trkpt>
      <trkpt lat="48.57423" lon="2.54487">
        <ele>131.48</ele>
        <time>2014-01-05T13:49:24Z</time>
      </trkpt>
      <trkpt lat="48.574" lon="2.54492">
        <ele>132.93</ele>
        <time>2014-01-05T13:49:39Z</time>
      </trkpt>
      <trkpt lat="48.5738" lon="2.54508">
        <ele>131.2</ele>
        <time>2014-01-05T13:49:58Z</time>
      </trkpt>
      <trkpt lat="48.57362" lon="2.5453">
        <ele>130.46</ele>
        <time>2014-01-05T13:50:18Z</time>
      </trkpt>
      <trkpt lat="48.57343" lon="2.54548">
        <ele>128.46</ele>
        <time>2014-01-05T13:50:42Z</time>
      </trkpt>
      <trkpt lat="48.57323" lon="2.54566">
        <ele>125.92</ele>
        <time>2014-01-05T13:50:59Z</time>
      </trkpt>
      <trkpt lat="48.57303" lon="2.54583">
        <ele>121.15</ele>
        <time>2014-01-05T13:51:18Z</time>
      </trkpt>
      <trkpt lat="48.57286" lon="2.54607">
        <ele>117.77</ele>
        <time>2014-01-05T13:51:42Z</time>
      </trkpt>
      <trkpt lat="48.57265" lon="2.54621">
        <ele>114.98</ele>
        <time>2014-01-05T13:51:58Z</time>
      </trkpt>
      <trkpt lat="48.57245" lon="2.5464">
        <ele>113.64</ele>
        <time>2014-01-05T13:52:17Z</time>
      </trkpt>
      <trkpt lat="48.57225" lon="2.54654">
        <ele>112.31</ele>
        <time>2014-01-05T13:52:32Z</time>
      </trkpt>
      <trkpt lat="48.57205" lon="2.54671">
        <ele>109.97</ele>
        <time>2014-01-05T13:52:52Z</time>
      </trkpt>
      <trkpt lat="48.57184" lon="2.54685">
        <ele>107.82</ele>
        <time>2014-01-05T13:53:10Z</time>
      </trkpt>
      <trkpt lat="48.57165" lon="2.54705">
        <ele>106.03</ele>
        <time>2014-01-05T13:53:31Z</time>
      </trkpt>
      <trkpt lat="48.57143" lon="2.54717">
        <ele>105.16</ele>
        <time>2014-01-05T13:53:48Z</time>
      </trkpt>
      <trkpt lat="48.57122" lon="2.54731">
        <ele>103.76</ele>
        <time>2014-01-05T13:54:09Z</time>
      </trkpt>
      <trkpt lat="48.57101" lon="2.54746">
        <ele>101.96</ele>
        <time>2014-01-05T13:54:31Z</time>
      </trkpt>
      <trkpt lat="48.57079" lon="2.54757">
        <ele>102.82</ele>
        <time>2014-01-05T13:54:51Z</time>
      </trkpt>
      <trkpt lat="48.57057" lon="2.5477">
        <ele>101.58</ele>
        <time>2014-01-05T13:55:12Z</time>
      </trkpt>
      <trkpt lat="48.57037" lon="2.54786">
        <ele>99</ele>
        <time>2014-01-05T13:55:35Z</time>
      </trkpt>
      <trkpt lat="48.57015" lon="2.54795">
        <ele>96.17</ele>
        <time>2014-01-05T13:55:56Z</time>
      </trkpt>
      <trkpt lat="48.56992" lon="2.54802">
        <ele>94.26</ele>
        <time>2014-01-05T13:56:14Z</time>
      </trkpt>
      <trkpt lat="48.5697" lon="2.54814">
        <ele>92.7</ele>
        <time>2014-01-05T13:56:33Z</time>
      </trkpt>
      <trkpt lat="48.5695" lon="2.54827">
        <ele>93.82</ele>
        <time>2014-01-05T13:56:53Z</time>
      </trkpt>
      <trkpt lat="48.56931" lon="2.54847">
        <ele>90.73</ele>
        <time>2014-01-05T13:57:19Z</time>
      </trkpt>
      <trkpt lat="48.56911" lon="2.54864">
        <ele>89.47</ele>
        <time>2014-01-05T13:58:02Z</time>
      </trkpt>
      <trkpt lat="48.56889" lon="2.54873">
        <ele>89.2</ele>
        <time>2014-01-05T13:58:22Z</time>
      </trkpt>
      <trkpt lat="48.56868" lon="2.5489">
        <ele>87.34</ele>
        <time>2014-01-05T13:58:45Z</time>
      </trkpt>
      <trkpt lat="48.56846" lon="2.54899">
        <ele>87.04</ele>
        <time>2014-01-05T13:59:04Z</time>
      </trkpt>
      <trkpt lat="48.56826" lon="2.54916">
        <ele>87.47</ele>
        <time>2014-01-05T13:59:23Z</time>
      </trkpt>
      <trkpt lat="48.56804" lon="2.54926">
        <ele>87.5</ele>
        <time>2014-01-05T13:59:44Z</time>
      </trkpt>
      <trkpt lat="48.56783" lon="2.54941">
        <ele>87.18</ele>
        <time>2014-01-05T14:00:04Z</time>
      </trkpt>
      <trkpt lat="48.56761" lon="2.54954">
        <ele>88.2</ele>
        <time>2014-01-05T14:00:24Z</time>
      </trkpt>
      <trkpt lat="48.5674" lon="2.54967">
        <ele>87.4</ele>
        <time>2014-01-05T14:00:40Z</time>
      </trkpt>
      <trkpt lat="48.56717" lon="2.5497">
        <ele>87.08</ele>
        <time>2014-01-05T14:01:01Z</time>
      </trkpt>
      <trkpt lat="48.56693" lon="2.54967">
        <ele>86.28</ele>
        <time>2014-01-05T14:01:29Z</time>
      </trkpt>
      <trkpt lat="48.56671" lon="2.5496">
        <ele>86.44</ele>
        <time>2014-01-05T14:01:51Z</time>
      </trkpt>
      <trkpt lat="48.56648" lon="2.54958">
        <ele>85.41</ele>
        <time>2014-01-05T14:02:08Z</time>
      </trkpt>
      <trkpt lat="48.56625" lon="2.5495">
        <ele>84.11</ele>
        <time>2014-01-05T14:02:23Z</time>
      </trkpt>
      <trkpt lat="48.56603" lon="2.54946">
        <ele>83.81</ele>
        <time>2014-01-05T14:02:39Z</time>
      </trkpt>
      <trkpt lat="48.5658" lon="2.5495">
        <ele>81.05</ele>
        <time>2014-01-05T14:03:09Z</time>
      </trkpt>
      <trkpt lat="48.56557" lon="2.54942">
        <ele>81.24</ele>
        <time>2014-01-05T14:03:31Z</time>
      </trkpt>
      <trkpt lat="48.56534" lon="2.54937">
        <ele>80.94</ele>
        <time>2014-01-05T14:03:49Z</time>
      </trkpt>
      <trkpt lat="48.56511" lon="2.54936">
        <ele>81.39</ele>
        <time>2014-01-05T14:04:09Z</time>
      </trkpt>
      <trkpt lat="48.56488" lon="2.54926">
        <ele>81.57</ele>
        <time>2014-01-05T14:04:28Z</time>
      </trkpt>
      <trkpt lat="48.56465" lon="2.54925">
        <ele>82.27</ele>
        <time>2014-01-05T14:04:46Z</time>
      </trkpt>
      <trkpt lat="48.56443" lon="2.54918">
        <ele>83.25</ele>
        <time>2014-01-05T14:05:06Z</time>
      </trkpt>
      <trkpt lat="48.5642" lon="2.54914">
        <ele>83.78</ele>
        <time>2014-01-05T14:05:26Z</time>
      </trkpt>
      <trkpt lat="48.56397" lon="2.54911">
        <ele>84.37</ele>
        <time>2014-01-05T14:05:44Z</time>
      </trkpt>
      <trkpt lat="48.56374" lon="2.54905">
        <ele>84.25</ele>
        <time>2014-01-05T14:06:00Z</time>
      </trkpt>
      <trkpt lat="48.56352" lon="2.54897">
        <ele>86.49</ele>
        <time>2014-01-05T14:06:20Z</time>
      </trkpt>
      <trkpt lat="48.56329" lon="2.54893">
        <ele>87.32</ele>
        <time>2014-01-05T14:06:43Z</time>
      </trkpt>
      <trkpt lat="48.56305" lon="2.54888">
        <ele>85.66</ele>
        <time>2014-01-05T14:06:57Z</time>
      </trkpt>
      <trkpt lat="48.56282" lon="2.54884">
        <ele>85.4</ele>
        <time>2014-01-05T14:07:15Z</time>
      </trkpt>
      <trkpt lat="48.56259" lon="2.54877">
        <ele>83.44</ele>
        <time>2014-01-05T14:07:32Z</time>
      </trkpt>
      <trkpt lat="48.56236" lon="2.54877">
        <ele>83.87</ele>
        <time>2014-01-05T14:07:56Z</time>
      </trkpt>
      <trkpt lat="48.56212" lon="2.5487">
        <ele>85.99</ele>
        <time>2014-01-05T14:08:21Z</time>
      </trkpt>
      <trkpt lat="48.56189" lon="2.54868">
        <ele>85.66</ele>
        <time>2014-01-05T14:08:38Z</time>
      </trkpt>
      <trkpt lat="48.56167" lon="2.54861">
        <ele>86.66</ele>
        <time>2014-01-05T14:08:56Z</time>
      </trkpt>
      <trkpt lat="48.56144" lon="2.54856">
        <ele>87.4</ele>
        <time>2014-01-05T14:09:16Z</time>
      </trkpt>
      <trkpt lat="48.56121" lon="2.5485">
        <ele>87.61</ele>
        <time>2014-01-05T14:09:34Z</time>
      </trkpt>
      <trkpt lat="48.56098" lon="2.54847">
        <ele>86.77</ele>
        <time>2014-01-05T14:09:49Z</time>
      </trkpt>
      <trkpt lat="48.56075" lon="2.54842">
        <ele>86.53</ele>
        <time>2014-01-05T14:10:07Z</time>
      </trkpt>
      <trkpt lat="48.56051" lon="2.54837">
        <ele>84.92</ele>
        <time>2014-01-05T14:10:27Z</time>
      </trkpt>
      <trkpt lat="48.56028" lon="2.54838">
        <ele>84.48</ele>
        <time>2014-01-05T14:10:48Z</time>
      </trkpt>
      <trkpt lat="48.56006" lon="2.54829">
        <ele>84.98</ele>
        <time>2014-01-05T14:11:05Z</time>
      </trkpt>
      <trkpt lat="48.55983" lon="2.54824">
        <ele>85.7</ele>
        <time>2014-01-05T14:11:21Z</time>
      </trkpt>
      <trkpt lat="48.55961" lon="2.54815">
        <ele>87.02</ele>
        <time>2014-01-05T14:11:42Z</time>
      </trkpt>
      <trkpt lat="48.55938" lon="2.54813">
        <ele>86.28</ele>
        <time>2014-01-05T14:11:59Z</time>
      </trkpt>
      <trkpt lat="48.55915" lon="2.54808">
        <ele>86.27</ele>
        <time>2014-01-05T14:12:17Z</time>
      </trkpt>
      <trkpt lat="48.55893" lon="2.54798">
        <ele>87.13</ele>
        <time>2014-01-05T14:12:33Z</time>
      </trkpt>
      <trkpt lat="48.5587" lon="2.54796">
        <ele>86.6</ele>
        <time>2014-01-05T14:12:52Z</time>
      </trkpt>
      <trkpt lat="48.55851" lon="2.54814">
        <ele>84.31</ele>
        <time>2014-01-05T14:14:46Z</time>
      </trkpt>
      <trkpt lat="48.55828" lon="2.54813">
        <ele>77.92</ele>
        <time>2014-01-05T14:16:21Z</time>
      </trkpt>
      <trkpt lat="48.55806" lon="2.54824">
        <ele>82.97</ele>
        <time>2014-01-05T14:17:36Z</time>
      </trkpt>
      <trkpt lat="48.55785" lon="2.54842">
        <ele>82.74</ele>
        <time>2014-01-05T14:18:01Z</time>
      </trkpt>
      <trkpt lat="48.55773" lon="2.54871">
        <ele>83.17</ele>
        <time>2014-01-05T14:18:26Z</time>
      </trkpt>
      <trkpt lat="48.55757" lon="2.54895">
        <ele>83.03</ele>
        <time>2014-01-05T14:18:53Z</time>
      </trkpt>
      <trkpt lat="48.55737" lon="2.54913">
        <ele>82.93</ele>
        <time>2014-01-05T14:19:13Z</time>
      </trkpt>
      <trkpt lat="48.55737" lon="2.54947">
        <ele>83.62</ele>
        <time>2014-01-05T14:19:33Z</time>
      </trkpt>
      <trkpt lat="48.55735" lon="2.54981">
        <ele>84.48</ele>
        <time>2014-01-05T14:19:52Z</time>
      </trkpt>
      <trkpt lat="48.5574" lon="2.55015">
        <ele>87.34</ele>
        <time>2014-01-05T14:20:13Z</time>
      </trkpt>
      <trkpt lat="48.55743" lon="2.5505">
        <ele>88.82</ele>
        <time>2014-01-05T14:20:36Z</time>
      </trkpt>
      <trkpt lat="48.55751" lon="2.55084">
        <ele>90.32</ele>
        <time>2014-01-05T14:20:54Z</time>
      </trkpt>
      <trkpt lat="48.55766" lon="2.55111">
        <ele>92.44</ele>
        <time>2014-01-05T14:21:05Z</time>
      </trkpt>
      <trkpt lat="48.55744" lon="2.5512">
        <ele>90.4</ele>
        <time>2014-01-05T14:21:16Z</time>
      </trkpt>
      <trkpt lat="48.5572" lon="2.55116">
        <ele>88.57</ele>
        <time>2014-01-05T14:21:29Z</time>
      </trkpt>
      <trkpt lat="48.55698" lon="2.55126">
        <ele>88.8</ele>
        <time>2014-01-05T14:21:44Z</time>
      </trkpt>
      <trkpt lat="48.55674" lon="2.55122">
        <ele>89.87</ele>
        <time>2014-01-05T14:22:03Z</time>
      </trkpt>
      <trkpt lat="48.55651" lon="2.55117">
        <ele>90.49</ele>
        <time>2014-01-05T14:22:21Z</time>
      </trkpt>
      <trkpt lat="48.55629" lon="2.55107">
        <ele>91.53</ele>
        <time>2014-01-05T14:22:35Z</time>
      </trkpt>
      <trkpt lat="48.55606" lon="2.55101">
        <ele>92.68</ele>
        <time>2014-01-05T14:23:00Z</time>
      </trkpt>
      <trkpt lat="48.55586" lon="2.55087">
        <ele>94.94</ele>
        <time>2014-01-05T14:23:27Z</time>
      </trkpt>
      <trkpt lat="48.55565" lon="2.55071">
        <ele>94.41</ele>
        <time>2014-01-05T14:23:46Z</time>
      </trkpt>
      <trkpt lat="48.55544" lon="2.55059">
        <ele>96.37</ele>
        <time>2014-01-05T14:24:05Z</time>
      </trkpt>
      <trkpt lat="48.55526" lon="2.55038">
        <ele>97</ele>
        <time>2014-01-05T14:24:21Z</time>
      </trkpt>
      <trkpt lat="48.55507" lon="2.55019">
        <ele>97.24</ele>
        <time>2014-01-05T14:24:42Z</time>
      </trkpt>
      <trkpt lat="48.55487" lon="2.55">
        <ele>97.5</ele>
        <time>2014-01-05T14:25:00Z</time>
      </trkpt>
      <trkpt lat="48.55465" lon="2.54988">
        <ele>97.3</ele>
        <time>2014-01-05T14:25:17Z</time>
      </trkpt>
      <trkpt lat="48.55443" lon="2.54977">
        <ele>96.59</ele>
        <time>2014-01-05T14:25:36Z</time>
      </trkpt>
      <trkpt lat="48.55421" lon="2.54967">
        <ele>96.59</ele>
        <time>2014-01-05T14:25:56Z</time>
      </trkpt>
      <trkpt lat="48.55399" lon="2.54962">
        <ele>96.67</ele>
        <time>2014-01-05T14:26:14Z</time>
      </trkpt>
      <trkpt lat="48.55375" lon="2.54957">
        <ele>98.77</ele>
        <time>2014-01-05T14:26:33Z</time>
      </trkpt>
      <trkpt lat="48.55354" lon="2.54948">
        <ele>98.22</ele>
        <time>2014-01-05T14:26:49Z</time>
      </trkpt>
      <trkpt lat="48.5533" lon="2.54942">
        <ele>96.81</ele>
        <time>2014-01-05T14:27:08Z</time>
      </trkpt>
      <trkpt lat="48.55307" lon="2.54938">
        <ele>96.93</ele>
        <time>2014-01-05T14:27:30Z</time>
      </trkpt>
      <trkpt lat="48.5529" lon="2.54913">
        <ele>97.13</ele>
        <time>2014-01-05T14:27:51Z</time>
      </trkpt>
      <trkpt lat="48.55276" lon="2.54887">
        <ele>97.26</ele>
        <time>2014-01-05T14:28:10Z</time>
      </trkpt>
      <trkpt lat="48.5527" lon="2.54854">
        <ele>95.9</ele>
        <time>2014-01-05T14:28:56Z</time>
      </trkpt>
      <trkpt lat="48.55258" lon="2.54825">
        <ele>92.71</ele>
        <time>2014-01-05T14:29:20Z</time>
      </trkpt>
      <trkpt lat="48.55239" lon="2.54808">
        <ele>91.18</ele>
        <time>2014-01-05T14:29:41Z</time>
      </trkpt>
      <trkpt lat="48.5522" lon="2.54789">
        <ele>91.22</ele>
        <time>2014-01-05T14:30:01Z</time>
      </trkpt>
      <trkpt lat="48.55197" lon="2.54791">
        <ele>90.6</ele>
        <time>2014-01-05T14:30:24Z</time>
      </trkpt>
      <trkpt lat="48.55173" lon="2.54793">
        <ele>89.53</ele>
        <time>2014-01-05T14:30:42Z</time>
      </trkpt>
      <trkpt lat="48.5515" lon="2.54799">
        <ele>88.2</ele>
        <time>2014-01-05T14:31:01Z</time>
      </trkpt>
      <trkpt lat="48.55128" lon="2.54812">
        <ele>88.9</ele>
        <time>2014-01-05T14:31:22Z</time>
      </trkpt>
      <trkpt lat="48.55107" lon="2.54825">
        <ele>89.21</ele>
        <time>2014-01-05T14:31:40Z</time>
      </trkpt>
      <trkpt lat="48.55085" lon="2.54835">
        <ele>90.17</ele>
        <time>2014-01-05T14:31:59Z</time>
      </trkpt>
      <trkpt lat="48.55062" lon="2.54841">
        <ele>93.26</ele>
        <time>2014-01-05T14:33:05Z</time>
      </trkpt>
      <trkpt lat="48.55039" lon="2.54847">
        <ele>93.33</ele>
        <time>2014-01-05T14:33:25Z</time>
      </trkpt>
      <trkpt lat="48.55016" lon="2.54857">
        <ele>91.96</ele>
        <time>2014-01-05T14:33:42Z</time>
      </trkpt>
      <trkpt lat="48.54994" lon="2.54863">
        <ele>92.21</ele>
        <time>2014-01-05T14:34:03Z</time>
      </trkpt>
      <trkpt lat="48.54971" lon="2.54873">
        <ele>92.63</ele>
        <time>2014-01-05T14:34:22Z</time>
      </trkpt>
      <trkpt lat="48.54948" lon="2.54879">
        <ele>93.06</ele>
        <time>2014-01-05T14:34:42Z</time>
      </trkpt>
      <trkpt lat="48.54925" lon="2.54886">
        <ele>92.5</ele>
        <time>2014-01-05T14:35:01Z</time>
      </trkpt>
      <trkpt lat="48.54902" lon="2.54895">
        <ele>93.66</ele>
        <time>2014-01-05T14:35:21Z</time>
      </trkpt>
      <trkpt lat="48.5488" lon="2.54902">
        <ele>93.7</ele>
        <time>2014-01-05T14:35:38Z</time>
      </trkpt>
      <trkpt lat="48.54858" lon="2.54913">
        <ele>92.32</ele>
        <time>2014-01-05T14:36:02Z</time>
      </trkpt>
      <trkpt lat="48.54835" lon="2.54922">
        <ele>89.92</ele>
        <time>2014-01-05T14:36:20Z</time>
      </trkpt>
      <trkpt lat="48.54812" lon="2.54926">
        <ele>89.97</ele>
        <time>2014-01-05T14:36:38Z</time>
      </trkpt>
      <trkpt lat="48.54791" lon="2.54938">
        <ele>92.22</ele>
        <time>2014-01-05T14:36:57Z</time>
      </trkpt>
      <trkpt lat="48.54768" lon="2.54943">
        <ele>93.75</ele>
        <time>2014-01-05T14:37:15Z</time>
      </trkpt>
      <trkpt lat="48.54746" lon="2.54955">
        <ele>94.26</ele>
        <time>2014-01-05T14:37:33Z</time>
      </trkpt>
      <trkpt lat="48.54723" lon="2.54962">
        <ele>96.71</ele>
        <time>2014-01-05T14:37:56Z</time>
      </trkpt>
      <trkpt lat="48.54702" lon="2.54974">
        <ele>95.64</ele>
        <time>2014-01-05T14:38:13Z</time>
      </trkpt>
      <trkpt lat="48.5468" lon="2.54982">
        <ele>95.16</ele>
        <time>2014-01-05T14:38:32Z</time>
      </trkpt>
      <trkpt lat="48.54656" lon="2.54986">
        <ele>95.42</ele>
        <time>2014-01-05T14:38:49Z</time>
      </trkpt>
      <trkpt lat="48.54634" lon="2.54998">
        <ele>96.46</ele>
        <time>2014-01-05T14:39:10Z</time>
      </trkpt>
      <trkpt lat="48.54611" lon="2.55006">
        <ele>97.8</ele>
        <time>2014-01-05T14:39:28Z</time>
      </trkpt>
      <trkpt lat="48.54589" lon="2.55012">
        <ele>99.32</ele>
        <time>2014-01-05T14:39:50Z</time>
      </trkpt>
      <trkpt lat="48.54566" lon="2.55024">
        <ele>99.69</ele>
        <time>2014-01-05T14:40:07Z</time>
      </trkpt>
      <trkpt lat="48.54545" lon="2.55035">
        <ele>99.69</ele>
        <time>2014-01-05T14:40:24Z</time>
      </trkpt>
      <trkpt lat="48.54522" lon="2.55044">
        <ele>98.43</ele>
        <time>2014-01-05T14:40:45Z</time>
      </trkpt>
      <trkpt lat="48.54499" lon="2.55053">
        <ele>98.36</ele>
        <time>2014-01-05T14:41:04Z</time>
      </trkpt>
      <trkpt lat="48.54476" lon="2.5506">
        <ele>98.71</ele>
        <time>2014-01-05T14:41:23Z</time>
      </trkpt>
      <trkpt lat="48.54452" lon="2.55063">
        <ele>98.92</ele>
        <time>2014-01-05T14:41:40Z</time>
      </trkpt>
      <trkpt lat="48.54431" lon="2.55074">
        <ele>99.47</ele>
        <time>2014-01-05T14:41:59Z</time>
      </trkpt>
      <trkpt lat="48.54409" lon="2.55083">
        <ele>100.68</ele>
        <time>2014-01-05T14:42:19Z</time>
      </trkpt>
      <trkpt lat="48.54386" lon="2.55091">
        <ele>100.33</ele>
        <time>2014-01-05T14:42:37Z</time>
      </trkpt>
      <trkpt lat="48.54363" lon="2.55101">
        <ele>100.75</ele>
        <time>2014-01-05T14:42:56Z</time>
      </trkpt>
      <trkpt lat="48.54341" lon="2.5511">
        <ele>101</ele>
        <time>2014-01-05T14:43:16Z</time>
      </trkpt>
      <trkpt lat="48.54318" lon="2.55115">
        <ele>99.55</ele>
        <time>2014-01-05T14:43:35Z</time>
      </trkpt>
      <trkpt lat="48.54295" lon="2.55109">
        <ele>100.17</ele>
        <time>2014-01-05T14:43:52Z</time>
      </trkpt>
      <trkpt lat="48.54273" lon="2.55116">
        <ele>100.46</ele>
        <time>2014-01-05T14:44:09Z</time>
      </trkpt>
      <trkpt lat="48.54252" lon="2.55098">
        <ele>103.69</ele>
        <time>2014-01-05T14:44:31Z</time>
      </trkpt>
      <trkpt lat="48.54233" lon="2.55079">
        <ele>106.57</ele>
        <time>2014-01-05T14:44:50Z</time>
      </trkpt>
      <trkpt lat="48.54212" lon="2.55062">
        <ele>106.7</ele>
        <time>2014-01-05T14:45:09Z</time>
      </trkpt>
      <trkpt lat="48.54193" lon="2.55045">
        <ele>107.85</ele>
        <time>2014-01-05T14:45:29Z</time>
      </trkpt>
      <trkpt lat="48.54172" lon="2.55028">
        <ele>108.62</ele>
        <time>2014-01-05T14:45:46Z</time>
      </trkpt>
      <trkpt lat="48.54152" lon="2.55009">
        <ele>108.59</ele>
        <time>2014-01-05T14:46:04Z</time>
      </trkpt>
      <trkpt lat="48.54132" lon="2.54993">
        <ele>109.91</ele>
        <time>2014-01-05T14:46:25Z</time>
      </trkpt>
      <trkpt lat="48.54111" lon="2.54977">
        <ele>109.31</ele>
        <time>2014-01-05T14:46:42Z</time>
      </trkpt>
      <trkpt lat="48.54096" lon="2.54952">
        <ele>108.82</ele>
        <time>2014-01-05T14:47:15Z</time>
      </trkpt>
      <trkpt lat="48.54077" lon="2.54931">
        <ele>109.4</ele>
        <time>2014-01-05T14:47:37Z</time>
      </trkpt>
      <trkpt lat="48.54055" lon="2.5492">
        <ele>108.39</ele>
        <time>2014-01-05T14:47:58Z</time>
      </trkpt>
      <trkpt lat="48.54034" lon="2.54906">
        <ele>108.33</ele>
        <time>2014-01-05T14:48:16Z</time>
      </trkpt>
      <trkpt lat="48.54013" lon="2.54892">
        <ele>106.41</ele>
        <time>2014-01-05T14:48:34Z</time>
      </trkpt>
      <trkpt lat="48.53992" lon="2.54879">
        <ele>106.89</ele>
        <time>2014-01-05T14:48:51Z</time>
      </trkpt>
      <trkpt lat="48.5397" lon="2.54866">
        <ele>105.81</ele>
        <time>2014-01-05T14:49:09Z</time>
      </trkpt>
      <trkpt lat="48.53947" lon="2.54863">
        <ele>105.54</ele>
        <time>2014-01-05T14:49:24Z</time>
      </trkpt>
      <trkpt lat="48.53925" lon="2.54852">
        <ele>104.1</ele>
        <time>2014-01-05T14:49:42Z</time>
      </trkpt>
      <trkpt lat="48.53903" lon="2.54858">
        <ele>101.29</ele>
        <time>2014-01-05T14:50:04Z</time>
      </trkpt>
      <trkpt lat="48.53881" lon="2.5485">
        <ele>98.07</ele>
        <time>2014-01-05T14:50:23Z</time>
      </trkpt>
      <trkpt lat="48.53858" lon="2.5484">
        <ele>95.79</ele>
        <time>2014-01-05T14:50:42Z</time>
      </trkpt>
      <trkpt lat="48.53837" lon="2.54829">
        <ele>91.7</ele>
        <time>2014-01-05T14:51:01Z</time>
      </trkpt>
      <trkpt lat="48.53814" lon="2.54823">
        <ele>90.56</ele>
        <time>2014-01-05T14:51:18Z</time>
      </trkpt>
      <trkpt lat="48.53794" lon="2.54809">
        <ele>89.66</ele>
        <time>2014-01-05T14:51:35Z</time>
      </trkpt>
      <trkpt lat="48.53772" lon="2.548">
        <ele>88.55</ele>
        <time>2014-01-05T14:51:52Z</time>
      </trkpt>
      <trkpt lat="48.5375" lon="2.5479">
        <ele>89.78</ele>
        <time>2014-01-05T14:52:10Z</time>
      </trkpt>
      <trkpt lat="48.53728" lon="2.54779">
        <ele>90.98</ele>
        <time>2014-01-05T14:52:28Z</time>
      </trkpt>
      <trkpt lat="48.53705" lon="2.54768">
        <ele>92.16</ele>
        <time>2014-01-05T14:52:48Z</time>
      </trkpt>
      <trkpt lat="48.53687" lon="2.54749">
        <ele>84.83</ele>
        <time>2014-01-05T14:58:51Z</time>
      </trkpt>
      <trkpt lat="48.53673" lon="2.54721">
        <ele>82.67</ele>
        <time>2014-01-05T14:59:14Z</time>
      </trkpt>
      <trkpt lat="48.5365" lon="2.54718">
        <ele>84.57</ele>
        <time>2014-01-05T14:59:40Z</time>
      </trkpt>
      <trkpt lat="48.53627" lon="2.54722">
        <ele>83.79</ele>
        <time>2014-01-05T15:00:01Z</time>
      </trkpt>
      <trkpt lat="48.53605" lon="2.5471">
        <ele>82.2</ele>
        <time>2014-01-05T15:00:22Z</time>
      </trkpt>
      <trkpt lat="48.53583" lon="2.54699">
        <ele>82.3</ele>
        <time>2014-01-05T15:00:42Z</time>
      </trkpt>
      <trkpt lat="48.53562" lon="2.54691">
        <ele>82.89</ele>
        <time>2014-01-05T15:01:01Z</time>
      </trkpt>
      <trkpt lat="48.5354" lon="2.54678">
        <ele>83.06</ele>
        <time>2014-01-05T15:01:26Z</time>
      </trkpt>
      <trkpt lat="48.53518" lon="2.54669">
        <ele>81.68</ele>
        <time>2014-01-05T15:01:43Z</time>
      </trkpt>
      <trkpt lat="48.53499" lon="2.54649">
        <ele>81.38</ele>
        <time>2014-01-05T15:02:03Z</time>
      </trkpt>
      <trkpt lat="48.53469" lon="2.54643">
        <ele>85.55</ele>
        <time>2014-01-05T15:02:51Z</time>
      </trkpt>
      <trkpt lat="48.53451" lon="2.54623">
        <ele>88.3</ele>
        <time>2014-01-05T15:03:09Z</time>
      </trkpt>
      <trkpt lat="48.53429" lon="2.54612">
        <ele>84.1</ele>
        <time>2014-01-05T15:03:37Z</time>
      </trkpt>
      <trkpt lat="48.53406" lon="2.54609">
        <ele>83.08</ele>
        <time>2014-01-05T15:04:00Z</time>
      </trkpt>
      <trkpt lat="48.53385" lon="2.54597">
        <ele>82.18</ele>
        <time>2014-01-05T15:04:18Z</time>
      </trkpt>
      <trkpt lat="48.53362" lon="2.54588">
        <ele>82.54</ele>
        <time>2014-01-05T15:04:38Z</time>
      </trkpt>
      <trkpt lat="48.53339" lon="2.54579">
        <ele>83.07</ele>
        <time>2014-01-05T15:05:00Z</time>
      </trkpt>
      <trkpt lat="48.53317" lon="2.54568">
        <ele>83.85</ele>
        <time>2014-01-05T15:05:20Z</time>
      </trkpt>
      <trkpt lat="48.53296" lon="2.54556">
        <ele>83.5</ele>
        <time>2014-01-05T15:05:39Z</time>
      </trkpt>
      <trkpt lat="48.53273" lon="2.54548">
        <ele>84.97</ele>
        <time>2014-01-05T15:06:00Z</time>
      </trkpt>
      <trkpt lat="48.53251" lon="2.54533">
        <ele>84.81</ele>
        <time>2014-01-05T15:06:21Z</time>
      </trkpt>
      <trkpt lat="48.5323" lon="2.54521">
        <ele>84.86</ele>
        <time>2014-01-05T15:06:42Z</time>
      </trkpt>
      <trkpt lat="48.53208" lon="2.54511">
        <ele>86.28</ele>
        <time>2014-01-05T15:07:03Z</time>
      </trkpt>
      <trkpt lat="48.53189" lon="2.54491">
        <ele>85.32</ele>
        <time>2014-01-05T15:07:22Z</time>
      </trkpt>
      <trkpt lat="48.53167" lon="2.54487">
        <ele>87.34</ele>
        <time>2014-01-05T15:07:41Z</time>
      </trkpt>
      <trkpt lat="48.53144" lon="2.5448">
        <ele>87.76</ele>
        <time>2014-01-05T15:08:00Z</time>
      </trkpt>
      <trkpt lat="48.53124" lon="2.54465">
        <ele>89.97</ele>
        <time>2014-01-05T15:08:20Z</time>
      </trkpt>
      <trkpt lat="48.53101" lon="2.54473">
        <ele>91.96</ele>
        <time>2014-01-05T15:08:43Z</time>
      </trkpt>
      <trkpt lat="48.5308" lon="2.54458">
        <ele>92.03</ele>
        <time>2014-01-05T15:08:58Z</time>
      </trkpt>
      <trkpt lat="48.53057" lon="2.5445">
        <ele>93.39</ele>
        <time>2014-01-05T15:09:16Z</time>
      </trkpt>
      <trkpt lat="48.53038" lon="2.5443">
        <ele>92.94</ele>
        <time>2014-01-05T15:09:36Z</time>
      </trkpt>
      <trkpt lat="48.53016" lon="2.54433">
        <ele>93.54</ele>
        <time>2014-01-05T15:09:59Z</time>
      </trkpt>
      <trkpt lat="48.53001" lon="2.54459">
        <ele>96.47</ele>
        <time>2014-01-05T15:11:04Z</time>
      </trkpt>
      <trkpt lat="48.52987" lon="2.54488">
        <ele>96.88</ele>
        <time>2014-01-05T15:11:24Z</time>
      </trkpt>
      <trkpt lat="48.52978" lon="2.54519">
        <ele>99.3</ele>
        <time>2014-01-05T15:11:48Z</time>
      </trkpt>
      <trkpt lat="48.52964" lon="2.54548">
        <ele>99.49</ele>
        <time>2014-01-05T15:12:09Z</time>
      </trkpt>
      <trkpt lat="48.52953" lon="2.54579">
        <ele>94.83</ele>
        <time>2014-01-05T15:12:27Z</time>
      </trkpt>
      <trkpt lat="48.52942" lon="2.5461">
        <ele>96.46</ele>
        <time>2014-01-05T15:12:49Z</time>
      </trkpt>
      <trkpt lat="48.5293" lon="2.54639">
        <ele>97.34</ele>
        <time>2014-01-05T15:13:09Z</time>
      </trkpt>
      <trkpt lat="48.52909" lon="2.54657">
        <ele>94.93</ele>
        <time>2014-01-05T15:14:02Z</time>
      </trkpt>
      <trkpt lat="48.52887" lon="2.54644">
        <ele>90.88</ele>
        <time>2014-01-05T15:14:29Z</time>
      </trkpt>
      <trkpt lat="48.52868" lon="2.54623">
        <ele>89.31</ele>
        <time>2014-01-05T15:14:49Z</time>
      </trkpt>
      <trkpt lat="48.52852" lon="2.54598">
        <ele>88.56</ele>
        <time>2014-01-05T15:15:09Z</time>
      </trkpt>
      <trkpt lat="48.52841" lon="2.54584">
        <ele>88.2</ele>
        <time>2014-01-05T15:15:34Z</time>
      </trkpt>
    </trkseg>
  </trk>
</gpx>